<?xml version="1.0" encoding="UTF-8" standalone="no" ?>
<gpx xmlns="http://www.topografix.com/GPX/1/1" xmlns:xsi="http://www.w3.org/2001/XMLSchema-instance" xsi:schemaLocation="http://www.topografix.com/GPX/1/1 http://www.topografix.com/GPX/1/1/gpx.xsd" version="1.1" creator="VisuGPX - https://www.visugpx.com">
  <metadata>
    <name>Trail ds les coteaux</name>
    <desc><![CDATA[trail dans les coteaux]]></desc>
  </metadata>
  <trk>
    <name><![CDATA[Trail ds les coteaux_1]]></name>
    <trkseg>
      <trkpt lat="43.54612" lon="1.45315">
        <ele>218.837</ele>
        <time>2016-05-22T08:16:10Z</time>
      </trkpt>
      <trkpt lat="43.54611" lon="1.45314">
        <ele>219.318</ele>
        <time>2016-05-22T08:16:11Z</time>
      </trkpt>
      <trkpt lat="43.54596" lon="1.45315">
        <ele>219.799</ele>
        <time>2016-05-22T08:16:17Z</time>
      </trkpt>
      <trkpt lat="43.5458" lon="1.45315">
        <ele>220.76</ele>
        <time>2016-05-22T08:16:22Z</time>
      </trkpt>
      <trkpt lat="43.54571" lon="1.45319">
        <ele>222.682</ele>
        <time>2016-05-22T08:16:26Z</time>
      </trkpt>
      <trkpt lat="43.54562" lon="1.45331">
        <ele>217.395</ele>
        <time>2016-05-22T08:16:30Z</time>
      </trkpt>
      <trkpt lat="43.54548" lon="1.45343">
        <ele>222.682</ele>
        <time>2016-05-22T08:16:35Z</time>
      </trkpt>
      <trkpt lat="43.54537" lon="1.45354">
        <ele>225.086</ele>
        <time>2016-05-22T08:16:40Z</time>
      </trkpt>
      <trkpt lat="43.54529" lon="1.45363">
        <ele>225.567</ele>
        <time>2016-05-22T08:16:44Z</time>
      </trkpt>
      <trkpt lat="43.54521" lon="1.45383">
        <ele>229.892</ele>
        <time>2016-05-22T08:16:50Z</time>
      </trkpt>
      <trkpt lat="43.5452" lon="1.45402">
        <ele>232.776</ele>
        <time>2016-05-22T08:16:55Z</time>
      </trkpt>
      <trkpt lat="43.54514" lon="1.4542">
        <ele>232.776</ele>
        <time>2016-05-22T08:17:00Z</time>
      </trkpt>
      <trkpt lat="43.54506" lon="1.45434">
        <ele>231.815</ele>
        <time>2016-05-22T08:17:05Z</time>
      </trkpt>
      <trkpt lat="43.54497" lon="1.45447">
        <ele>232.776</ele>
        <time>2016-05-22T08:17:09Z</time>
      </trkpt>
      <trkpt lat="43.54486" lon="1.45463">
        <ele>232.296</ele>
        <time>2016-05-22T08:17:15Z</time>
      </trkpt>
      <trkpt lat="43.54476" lon="1.45479">
        <ele>234.218</ele>
        <time>2016-05-22T08:17:20Z</time>
      </trkpt>
      <trkpt lat="43.54469" lon="1.4549">
        <ele>235.18</ele>
        <time>2016-05-22T08:17:24Z</time>
      </trkpt>
      <trkpt lat="43.5446" lon="1.45499">
        <ele>235.66</ele>
        <time>2016-05-22T08:17:28Z</time>
      </trkpt>
      <trkpt lat="43.54448" lon="1.45514">
        <ele>235.18</ele>
        <time>2016-05-22T08:17:33Z</time>
      </trkpt>
      <trkpt lat="43.54434" lon="1.45535">
        <ele>234.218</ele>
        <time>2016-05-22T08:17:40Z</time>
      </trkpt>
      <trkpt lat="43.54421" lon="1.45557">
        <ele>231.334</ele>
        <time>2016-05-22T08:17:46Z</time>
      </trkpt>
      <trkpt lat="43.54412" lon="1.45574">
        <ele>230.373</ele>
        <time>2016-05-22T08:17:51Z</time>
      </trkpt>
      <trkpt lat="43.544" lon="1.45597">
        <ele>230.373</ele>
        <time>2016-05-22T08:17:58Z</time>
      </trkpt>
      <trkpt lat="43.5439" lon="1.45615">
        <ele>229.892</ele>
        <time>2016-05-22T08:18:03Z</time>
      </trkpt>
      <trkpt lat="43.54374" lon="1.45641">
        <ele>228.931</ele>
        <time>2016-05-22T08:18:11Z</time>
      </trkpt>
      <trkpt lat="43.54365" lon="1.45658">
        <ele>228.45</ele>
        <time>2016-05-22T08:18:17Z</time>
      </trkpt>
      <trkpt lat="43.54354" lon="1.45677">
        <ele>230.373</ele>
        <time>2016-05-22T08:18:23Z</time>
      </trkpt>
      <trkpt lat="43.54344" lon="1.45692">
        <ele>231.815</ele>
        <time>2016-05-22T08:18:28Z</time>
      </trkpt>
      <trkpt lat="43.54332" lon="1.45697">
        <ele>231.815</ele>
        <time>2016-05-22T08:18:32Z</time>
      </trkpt>
      <trkpt lat="43.54321" lon="1.45686">
        <ele>232.296</ele>
        <time>2016-05-22T08:18:37Z</time>
      </trkpt>
      <trkpt lat="43.54319" lon="1.45684">
        <ele>231.815</ele>
        <time>2016-05-22T08:18:38Z</time>
      </trkpt>
      <trkpt lat="43.54301" lon="1.45668">
        <ele>233.257</ele>
        <time>2016-05-22T08:18:46Z</time>
      </trkpt>
      <trkpt lat="43.54285" lon="1.45656">
        <ele>233.738</ele>
        <time>2016-05-22T08:18:53Z</time>
      </trkpt>
      <trkpt lat="43.54273" lon="1.45647">
        <ele>234.699</ele>
        <time>2016-05-22T08:18:59Z</time>
      </trkpt>
      <trkpt lat="43.54262" lon="1.45639">
        <ele>236.622</ele>
        <time>2016-05-22T08:19:04Z</time>
      </trkpt>
      <trkpt lat="43.54251" lon="1.45627">
        <ele>238.544</ele>
        <time>2016-05-22T08:19:10Z</time>
      </trkpt>
      <trkpt lat="43.54238" lon="1.45614">
        <ele>239.025</ele>
        <time>2016-05-22T08:19:17Z</time>
      </trkpt>
      <trkpt lat="43.54228" lon="1.45603">
        <ele>240.467</ele>
        <time>2016-05-22T08:19:23Z</time>
      </trkpt>
      <trkpt lat="43.54222" lon="1.45595">
        <ele>240.948</ele>
        <time>2016-05-22T08:19:28Z</time>
      </trkpt>
      <trkpt lat="43.54213" lon="1.45584">
        <ele>244.312</ele>
        <time>2016-05-22T08:19:34Z</time>
      </trkpt>
      <trkpt lat="43.54212" lon="1.45581">
        <ele>244.312</ele>
        <time>2016-05-22T08:19:35Z</time>
      </trkpt>
      <trkpt lat="43.54204" lon="1.45569">
        <ele>245.273</ele>
        <time>2016-05-22T08:19:41Z</time>
      </trkpt>
      <trkpt lat="43.54196" lon="1.45562">
        <ele>246.235</ele>
        <time>2016-05-22T08:19:46Z</time>
      </trkpt>
      <trkpt lat="43.54186" lon="1.45554">
        <ele>248.158</ele>
        <time>2016-05-22T08:19:51Z</time>
      </trkpt>
      <trkpt lat="43.54177" lon="1.45543">
        <ele>249.599</ele>
        <time>2016-05-22T08:19:56Z</time>
      </trkpt>
      <trkpt lat="43.54166" lon="1.4553">
        <ele>251.522</ele>
        <time>2016-05-22T08:20:02Z</time>
      </trkpt>
      <trkpt lat="43.54155" lon="1.45521">
        <ele>252.003</ele>
        <time>2016-05-22T08:20:08Z</time>
      </trkpt>
      <trkpt lat="43.54146" lon="1.45513">
        <ele>252.003</ele>
        <time>2016-05-22T08:20:13Z</time>
      </trkpt>
      <trkpt lat="43.54136" lon="1.45505">
        <ele>252.003</ele>
        <time>2016-05-22T08:20:18Z</time>
      </trkpt>
      <trkpt lat="43.54124" lon="1.45497">
        <ele>254.406</ele>
        <time>2016-05-22T08:20:24Z</time>
      </trkpt>
      <trkpt lat="43.5411" lon="1.45486">
        <ele>257.29</ele>
        <time>2016-05-22T08:20:31Z</time>
      </trkpt>
      <trkpt lat="43.54096" lon="1.45476">
        <ele>257.771</ele>
        <time>2016-05-22T08:20:38Z</time>
      </trkpt>
      <trkpt lat="43.54085" lon="1.4547">
        <ele>259.693</ele>
        <time>2016-05-22T08:20:43Z</time>
      </trkpt>
      <trkpt lat="43.54074" lon="1.45466">
        <ele>258.732</ele>
        <time>2016-05-22T08:20:48Z</time>
      </trkpt>
      <trkpt lat="43.5406" lon="1.45466">
        <ele>256.809</ele>
        <time>2016-05-22T08:20:54Z</time>
      </trkpt>
      <trkpt lat="43.54044" lon="1.45472">
        <ele>254.887</ele>
        <time>2016-05-22T08:21:01Z</time>
      </trkpt>
      <trkpt lat="43.5403" lon="1.45477">
        <ele>253.925</ele>
        <time>2016-05-22T08:21:07Z</time>
      </trkpt>
      <trkpt lat="43.54015" lon="1.45484">
        <ele>252.483</ele>
        <time>2016-05-22T08:21:12Z</time>
      </trkpt>
      <trkpt lat="43.54" lon="1.45486">
        <ele>250.561</ele>
        <time>2016-05-22T08:21:18Z</time>
      </trkpt>
      <trkpt lat="43.53988" lon="1.45494">
        <ele>249.599</ele>
        <time>2016-05-22T08:21:23Z</time>
      </trkpt>
      <trkpt lat="43.53975" lon="1.45507">
        <ele>246.715</ele>
        <time>2016-05-22T08:21:29Z</time>
      </trkpt>
      <trkpt lat="43.53964" lon="1.45519">
        <ele>245.754</ele>
        <time>2016-05-22T08:21:35Z</time>
      </trkpt>
      <trkpt lat="43.53951" lon="1.45536">
        <ele>246.715</ele>
        <time>2016-05-22T08:21:42Z</time>
      </trkpt>
      <trkpt lat="43.53943" lon="1.45545">
        <ele>246.235</ele>
        <time>2016-05-22T08:21:46Z</time>
      </trkpt>
      <trkpt lat="43.53929" lon="1.45557">
        <ele>248.158</ele>
        <time>2016-05-22T08:21:52Z</time>
      </trkpt>
      <trkpt lat="43.53919" lon="1.45568">
        <ele>249.599</ele>
        <time>2016-05-22T08:21:57Z</time>
      </trkpt>
      <trkpt lat="43.53917" lon="1.4557">
        <ele>249.599</ele>
        <time>2016-05-22T08:21:58Z</time>
      </trkpt>
      <trkpt lat="43.53917" lon="1.4557">
        <ele>249.599</ele>
        <time>2016-05-22T08:21:58Z</time>
      </trkpt>
      <trkpt lat="43.53909" lon="1.45579">
        <ele>251.522</ele>
        <time>2016-05-22T08:22:02Z</time>
      </trkpt>
      <trkpt lat="43.53897" lon="1.45594">
        <ele>249.119</ele>
        <time>2016-05-22T08:22:08Z</time>
      </trkpt>
      <trkpt lat="43.53885" lon="1.45606">
        <ele>247.196</ele>
        <time>2016-05-22T08:22:13Z</time>
      </trkpt>
      <trkpt lat="43.53872" lon="1.45616">
        <ele>247.677</ele>
        <time>2016-05-22T08:22:18Z</time>
      </trkpt>
      <trkpt lat="43.53858" lon="1.45629">
        <ele>247.196</ele>
        <time>2016-05-22T08:22:24Z</time>
      </trkpt>
      <trkpt lat="43.53847" lon="1.45645">
        <ele>244.793</ele>
        <time>2016-05-22T08:22:29Z</time>
      </trkpt>
      <trkpt lat="43.53836" lon="1.4566">
        <ele>243.351</ele>
        <time>2016-05-22T08:22:35Z</time>
      </trkpt>
      <trkpt lat="43.53823" lon="1.45673">
        <ele>241.909</ele>
        <time>2016-05-22T08:22:41Z</time>
      </trkpt>
      <trkpt lat="43.53812" lon="1.45683">
        <ele>242.39</ele>
        <time>2016-05-22T08:22:46Z</time>
      </trkpt>
      <trkpt lat="43.538" lon="1.45695">
        <ele>242.87</ele>
        <time>2016-05-22T08:22:51Z</time>
      </trkpt>
      <trkpt lat="43.53787" lon="1.45709">
        <ele>242.39</ele>
        <time>2016-05-22T08:22:57Z</time>
      </trkpt>
      <trkpt lat="43.53775" lon="1.4572">
        <ele>243.832</ele>
        <time>2016-05-22T08:23:02Z</time>
      </trkpt>
      <trkpt lat="43.53765" lon="1.45731">
        <ele>242.87</ele>
        <time>2016-05-22T08:23:07Z</time>
      </trkpt>
      <trkpt lat="43.53745" lon="1.45748">
        <ele>239.505</ele>
        <time>2016-05-22T08:23:15Z</time>
      </trkpt>
      <trkpt lat="43.53733" lon="1.45758">
        <ele>235.66</ele>
        <time>2016-05-22T08:23:20Z</time>
      </trkpt>
      <trkpt lat="43.53721" lon="1.45766">
        <ele>233.738</ele>
        <time>2016-05-22T08:23:25Z</time>
      </trkpt>
      <trkpt lat="43.53709" lon="1.45773">
        <ele>234.218</ele>
        <time>2016-05-22T08:23:30Z</time>
      </trkpt>
      <trkpt lat="43.53694" lon="1.45784">
        <ele>232.776</ele>
        <time>2016-05-22T08:23:36Z</time>
      </trkpt>
      <trkpt lat="43.53678" lon="1.45793">
        <ele>232.296</ele>
        <time>2016-05-22T08:23:42Z</time>
      </trkpt>
      <trkpt lat="43.53658" lon="1.45805">
        <ele>232.296</ele>
        <time>2016-05-22T08:23:48Z</time>
      </trkpt>
      <trkpt lat="43.53639" lon="1.45817">
        <ele>228.931</ele>
        <time>2016-05-22T08:23:55Z</time>
      </trkpt>
      <trkpt lat="43.53619" lon="1.45832">
        <ele>226.047</ele>
        <time>2016-05-22T08:24:02Z</time>
      </trkpt>
      <trkpt lat="43.53604" lon="1.45843">
        <ele>225.567</ele>
        <time>2016-05-22T08:24:08Z</time>
      </trkpt>
      <trkpt lat="43.53587" lon="1.45854">
        <ele>224.125</ele>
        <time>2016-05-22T08:24:14Z</time>
      </trkpt>
      <trkpt lat="43.53568" lon="1.45865">
        <ele>222.202</ele>
        <time>2016-05-22T08:24:20Z</time>
      </trkpt>
      <trkpt lat="43.53554" lon="1.45869">
        <ele>220.279</ele>
        <time>2016-05-22T08:24:25Z</time>
      </trkpt>
      <trkpt lat="43.53537" lon="1.45877">
        <ele>217.395</ele>
        <time>2016-05-22T08:24:30Z</time>
      </trkpt>
      <trkpt lat="43.53525" lon="1.45881">
        <ele>215.473</ele>
        <time>2016-05-22T08:24:34Z</time>
      </trkpt>
      <trkpt lat="43.53508" lon="1.45887">
        <ele>214.031</ele>
        <time>2016-05-22T08:24:39Z</time>
      </trkpt>
      <trkpt lat="43.53489" lon="1.45894">
        <ele>211.627</ele>
        <time>2016-05-22T08:24:45Z</time>
      </trkpt>
      <trkpt lat="43.53477" lon="1.45901">
        <ele>211.627</ele>
        <time>2016-05-22T08:24:49Z</time>
      </trkpt>
      <trkpt lat="43.53465" lon="1.45911">
        <ele>209.224</ele>
        <time>2016-05-22T08:24:53Z</time>
      </trkpt>
      <trkpt lat="43.53453" lon="1.45922">
        <ele>206.34</ele>
        <time>2016-05-22T08:24:57Z</time>
      </trkpt>
      <trkpt lat="43.5345" lon="1.45926">
        <ele>206.34</ele>
        <time>2016-05-22T08:24:58Z</time>
      </trkpt>
      <trkpt lat="43.53434" lon="1.4594">
        <ele>203.456</ele>
        <time>2016-05-22T08:25:04Z</time>
      </trkpt>
      <trkpt lat="43.53423" lon="1.45949">
        <ele>202.014</ele>
        <time>2016-05-22T08:25:08Z</time>
      </trkpt>
      <trkpt lat="43.5341" lon="1.4596">
        <ele>199.611</ele>
        <time>2016-05-22T08:25:13Z</time>
      </trkpt>
      <trkpt lat="43.53395" lon="1.45972">
        <ele>197.688</ele>
        <time>2016-05-22T08:25:18Z</time>
      </trkpt>
      <trkpt lat="43.53383" lon="1.45982">
        <ele>194.324</ele>
        <time>2016-05-22T08:25:23Z</time>
      </trkpt>
      <trkpt lat="43.53372" lon="1.45992">
        <ele>191.92</ele>
        <time>2016-05-22T08:25:27Z</time>
      </trkpt>
      <trkpt lat="43.53355" lon="1.46006">
        <ele>189.998</ele>
        <time>2016-05-22T08:25:33Z</time>
      </trkpt>
      <trkpt lat="43.53341" lon="1.46018">
        <ele>187.594</ele>
        <time>2016-05-22T08:25:38Z</time>
      </trkpt>
      <trkpt lat="43.53337" lon="1.46021">
        <ele>187.114</ele>
        <time>2016-05-22T08:25:39Z</time>
      </trkpt>
      <trkpt lat="43.53325" lon="1.4603">
        <ele>185.191</ele>
        <time>2016-05-22T08:25:43Z</time>
      </trkpt>
      <trkpt lat="43.53309" lon="1.46045">
        <ele>184.23</ele>
        <time>2016-05-22T08:25:49Z</time>
      </trkpt>
      <trkpt lat="43.533" lon="1.46059">
        <ele>183.749</ele>
        <time>2016-05-22T08:25:54Z</time>
      </trkpt>
      <trkpt lat="43.53291" lon="1.46073">
        <ele>183.268</ele>
        <time>2016-05-22T08:25:59Z</time>
      </trkpt>
      <trkpt lat="43.53287" lon="1.46087">
        <ele>181.346</ele>
        <time>2016-05-22T08:26:04Z</time>
      </trkpt>
      <trkpt lat="43.53281" lon="1.46101">
        <ele>180.865</ele>
        <time>2016-05-22T08:26:09Z</time>
      </trkpt>
      <trkpt lat="43.53278" lon="1.46119">
        <ele>182.788</ele>
        <time>2016-05-22T08:26:15Z</time>
      </trkpt>
      <trkpt lat="43.53274" lon="1.46143">
        <ele>187.114</ele>
        <time>2016-05-22T08:26:21Z</time>
      </trkpt>
      <trkpt lat="43.5327" lon="1.46161">
        <ele>190.478</ele>
        <time>2016-05-22T08:26:26Z</time>
      </trkpt>
      <trkpt lat="43.53268" lon="1.46181">
        <ele>189.517</ele>
        <time>2016-05-22T08:26:32Z</time>
      </trkpt>
      <trkpt lat="43.53266" lon="1.462">
        <ele>189.517</ele>
        <time>2016-05-22T08:26:38Z</time>
      </trkpt>
      <trkpt lat="43.53262" lon="1.46222">
        <ele>190.478</ele>
        <time>2016-05-22T08:26:45Z</time>
      </trkpt>
      <trkpt lat="43.53259" lon="1.46243">
        <ele>190.478</ele>
        <time>2016-05-22T08:26:52Z</time>
      </trkpt>
      <trkpt lat="43.53256" lon="1.46262">
        <ele>191.44</ele>
        <time>2016-05-22T08:26:58Z</time>
      </trkpt>
      <trkpt lat="43.53253" lon="1.46285">
        <ele>192.882</ele>
        <time>2016-05-22T08:27:05Z</time>
      </trkpt>
      <trkpt lat="43.53252" lon="1.46292">
        <ele>193.362</ele>
        <time>2016-05-22T08:27:07Z</time>
      </trkpt>
      <trkpt lat="43.53252" lon="1.46305">
        <ele>193.362</ele>
        <time>2016-05-22T08:27:11Z</time>
      </trkpt>
      <trkpt lat="43.53251" lon="1.46324">
        <ele>192.401</ele>
        <time>2016-05-22T08:27:17Z</time>
      </trkpt>
      <trkpt lat="43.53249" lon="1.46341">
        <ele>191.44</ele>
        <time>2016-05-22T08:27:22Z</time>
      </trkpt>
      <trkpt lat="43.53244" lon="1.46358">
        <ele>192.401</ele>
        <time>2016-05-22T08:27:27Z</time>
      </trkpt>
      <trkpt lat="43.53239" lon="1.46381">
        <ele>192.882</ele>
        <time>2016-05-22T08:27:34Z</time>
      </trkpt>
      <trkpt lat="43.53233" lon="1.46398">
        <ele>191.44</ele>
        <time>2016-05-22T08:27:40Z</time>
      </trkpt>
      <trkpt lat="43.53226" lon="1.4641">
        <ele>189.517</ele>
        <time>2016-05-22T08:27:45Z</time>
      </trkpt>
      <trkpt lat="43.53217" lon="1.46406">
        <ele>190.478</ele>
        <time>2016-05-22T08:27:50Z</time>
      </trkpt>
      <trkpt lat="43.53212" lon="1.46398">
        <ele>190.959</ele>
        <time>2016-05-22T08:27:54Z</time>
      </trkpt>
      <trkpt lat="43.53199" lon="1.46388">
        <ele>191.44</ele>
        <time>2016-05-22T08:28:00Z</time>
      </trkpt>
      <trkpt lat="43.53189" lon="1.46385">
        <ele>190.478</ele>
        <time>2016-05-22T08:28:04Z</time>
      </trkpt>
      <trkpt lat="43.53176" lon="1.46391">
        <ele>187.594</ele>
        <time>2016-05-22T08:28:10Z</time>
      </trkpt>
      <trkpt lat="43.53172" lon="1.46395">
        <ele>187.594</ele>
        <time>2016-05-22T08:28:12Z</time>
      </trkpt>
      <trkpt lat="43.53156" lon="1.46404">
        <ele>189.517</ele>
        <time>2016-05-22T08:28:20Z</time>
      </trkpt>
      <trkpt lat="43.53145" lon="1.46407">
        <ele>189.036</ele>
        <time>2016-05-22T08:28:25Z</time>
      </trkpt>
      <trkpt lat="43.53128" lon="1.46406">
        <ele>188.556</ele>
        <time>2016-05-22T08:28:30Z</time>
      </trkpt>
      <trkpt lat="43.53119" lon="1.46408">
        <ele>187.594</ele>
        <time>2016-05-22T08:28:34Z</time>
      </trkpt>
      <trkpt lat="43.53107" lon="1.46411">
        <ele>188.556</ele>
        <time>2016-05-22T08:28:39Z</time>
      </trkpt>
      <trkpt lat="43.53094" lon="1.46413">
        <ele>186.633</ele>
        <time>2016-05-22T08:28:45Z</time>
      </trkpt>
      <trkpt lat="43.53081" lon="1.46415">
        <ele>189.036</ele>
        <time>2016-05-22T08:28:50Z</time>
      </trkpt>
      <trkpt lat="43.53069" lon="1.46416">
        <ele>191.92</ele>
        <time>2016-05-22T08:28:55Z</time>
      </trkpt>
      <trkpt lat="43.53054" lon="1.46417">
        <ele>192.401</ele>
        <time>2016-05-22T08:29:01Z</time>
      </trkpt>
      <trkpt lat="43.53041" lon="1.46416">
        <ele>191.44</ele>
        <time>2016-05-22T08:29:06Z</time>
      </trkpt>
      <trkpt lat="43.5303" lon="1.4642">
        <ele>192.882</ele>
        <time>2016-05-22T08:29:11Z</time>
      </trkpt>
      <trkpt lat="43.53017" lon="1.46422">
        <ele>192.401</ele>
        <time>2016-05-22T08:29:17Z</time>
      </trkpt>
      <trkpt lat="43.52999" lon="1.46421">
        <ele>192.882</ele>
        <time>2016-05-22T08:29:24Z</time>
      </trkpt>
      <trkpt lat="43.52989" lon="1.46419">
        <ele>193.843</ele>
        <time>2016-05-22T08:29:29Z</time>
      </trkpt>
      <trkpt lat="43.52976" lon="1.46417">
        <ele>189.517</ele>
        <time>2016-05-22T08:29:35Z</time>
      </trkpt>
      <trkpt lat="43.52963" lon="1.46419">
        <ele>191.44</ele>
        <time>2016-05-22T08:29:41Z</time>
      </trkpt>
      <trkpt lat="43.52956" lon="1.46419">
        <ele>191.92</ele>
        <time>2016-05-22T08:29:43Z</time>
      </trkpt>
      <trkpt lat="43.52937" lon="1.46422">
        <ele>194.324</ele>
        <time>2016-05-22T08:29:50Z</time>
      </trkpt>
      <trkpt lat="43.52931" lon="1.46423">
        <ele>192.882</ele>
        <time>2016-05-22T08:29:53Z</time>
      </trkpt>
      <trkpt lat="43.52919" lon="1.46424">
        <ele>193.362</ele>
        <time>2016-05-22T08:29:59Z</time>
      </trkpt>
      <trkpt lat="43.52906" lon="1.46423">
        <ele>192.882</ele>
        <time>2016-05-22T08:30:04Z</time>
      </trkpt>
      <trkpt lat="43.52898" lon="1.46428">
        <ele>197.688</ele>
        <time>2016-05-22T08:30:09Z</time>
      </trkpt>
      <trkpt lat="43.52893" lon="1.46431">
        <ele>200.092</ele>
        <time>2016-05-22T08:30:12Z</time>
      </trkpt>
      <trkpt lat="43.52884" lon="1.46438">
        <ele>205.379</ele>
        <time>2016-05-22T08:30:18Z</time>
      </trkpt>
      <trkpt lat="43.5288" lon="1.46449">
        <ele>206.821</ele>
        <time>2016-05-22T08:30:22Z</time>
      </trkpt>
      <trkpt lat="43.52882" lon="1.46459">
        <ele>205.379</ele>
        <time>2016-05-22T08:30:27Z</time>
      </trkpt>
      <trkpt lat="43.52882" lon="1.46465">
        <ele>201.534</ele>
        <time>2016-05-22T08:30:31Z</time>
      </trkpt>
      <trkpt lat="43.5288" lon="1.46474">
        <ele>201.534</ele>
        <time>2016-05-22T08:30:34Z</time>
      </trkpt>
      <trkpt lat="43.52877" lon="1.46491">
        <ele>204.417</ele>
        <time>2016-05-22T08:30:39Z</time>
      </trkpt>
      <trkpt lat="43.52869" lon="1.46504">
        <ele>210.666</ele>
        <time>2016-05-22T08:30:45Z</time>
      </trkpt>
      <trkpt lat="43.5286" lon="1.46509">
        <ele>210.666</ele>
        <time>2016-05-22T08:30:51Z</time>
      </trkpt>
      <trkpt lat="43.52859" lon="1.46525">
        <ele>206.34</ele>
        <time>2016-05-22T08:30:59Z</time>
      </trkpt>
      <trkpt lat="43.52859" lon="1.46527">
        <ele>205.859</ele>
        <time>2016-05-22T08:31:00Z</time>
      </trkpt>
      <trkpt lat="43.52858" lon="1.46537">
        <ele>205.379</ele>
        <time>2016-05-22T08:31:04Z</time>
      </trkpt>
      <trkpt lat="43.52855" lon="1.46561">
        <ele>210.666</ele>
        <time>2016-05-22T08:31:12Z</time>
      </trkpt>
      <trkpt lat="43.52856" lon="1.46562">
        <ele>211.147</ele>
        <time>2016-05-22T08:31:13Z</time>
      </trkpt>
      <trkpt lat="43.52863" lon="1.46573">
        <ele>214.031</ele>
        <time>2016-05-22T08:31:18Z</time>
      </trkpt>
      <trkpt lat="43.52871" lon="1.46576">
        <ele>210.666</ele>
        <time>2016-05-22T08:31:23Z</time>
      </trkpt>
      <trkpt lat="43.52878" lon="1.46587">
        <ele>210.185</ele>
        <time>2016-05-22T08:31:29Z</time>
      </trkpt>
      <trkpt lat="43.5288" lon="1.46594">
        <ele>212.589</ele>
        <time>2016-05-22T08:31:32Z</time>
      </trkpt>
      <trkpt lat="43.52883" lon="1.46603">
        <ele>211.627</ele>
        <time>2016-05-22T08:31:36Z</time>
      </trkpt>
      <trkpt lat="43.52887" lon="1.46616">
        <ele>213.069</ele>
        <time>2016-05-22T08:31:42Z</time>
      </trkpt>
      <trkpt lat="43.52889" lon="1.46622">
        <ele>211.147</ele>
        <time>2016-05-22T08:31:45Z</time>
      </trkpt>
      <trkpt lat="43.52897" lon="1.46635">
        <ele>210.185</ele>
        <time>2016-05-22T08:31:51Z</time>
      </trkpt>
      <trkpt lat="43.52902" lon="1.46642">
        <ele>210.666</ele>
        <time>2016-05-22T08:31:55Z</time>
      </trkpt>
      <trkpt lat="43.52899" lon="1.46655">
        <ele>213.55</ele>
        <time>2016-05-22T08:32:01Z</time>
      </trkpt>
      <trkpt lat="43.52893" lon="1.46666">
        <ele>214.511</ele>
        <time>2016-05-22T08:32:07Z</time>
      </trkpt>
      <trkpt lat="43.52886" lon="1.46676">
        <ele>217.395</ele>
        <time>2016-05-22T08:32:13Z</time>
      </trkpt>
      <trkpt lat="43.52882" lon="1.46686">
        <ele>220.76</ele>
        <time>2016-05-22T08:32:18Z</time>
      </trkpt>
      <trkpt lat="43.52878" lon="1.46697">
        <ele>221.241</ele>
        <time>2016-05-22T08:32:22Z</time>
      </trkpt>
      <trkpt lat="43.52871" lon="1.46714">
        <ele>221.241</ele>
        <time>2016-05-22T08:32:29Z</time>
      </trkpt>
      <trkpt lat="43.52863" lon="1.46729">
        <ele>221.721</ele>
        <time>2016-05-22T08:32:35Z</time>
      </trkpt>
      <trkpt lat="43.52856" lon="1.46746">
        <ele>223.163</ele>
        <time>2016-05-22T08:32:42Z</time>
      </trkpt>
      <trkpt lat="43.5285" lon="1.46759">
        <ele>224.125</ele>
        <time>2016-05-22T08:32:48Z</time>
      </trkpt>
      <trkpt lat="43.52846" lon="1.46771">
        <ele>224.125</ele>
        <time>2016-05-22T08:32:53Z</time>
      </trkpt>
      <trkpt lat="43.52839" lon="1.46784">
        <ele>224.125</ele>
        <time>2016-05-22T08:32:59Z</time>
      </trkpt>
      <trkpt lat="43.5283" lon="1.46799">
        <ele>225.567</ele>
        <time>2016-05-22T08:33:06Z</time>
      </trkpt>
      <trkpt lat="43.52821" lon="1.46808">
        <ele>226.528</ele>
        <time>2016-05-22T08:33:12Z</time>
      </trkpt>
      <trkpt lat="43.52809" lon="1.46818">
        <ele>227.009</ele>
        <time>2016-05-22T08:33:19Z</time>
      </trkpt>
      <trkpt lat="43.528" lon="1.46825">
        <ele>227.009</ele>
        <time>2016-05-22T08:33:24Z</time>
      </trkpt>
      <trkpt lat="43.52789" lon="1.46835">
        <ele>227.97</ele>
        <time>2016-05-22T08:33:30Z</time>
      </trkpt>
      <trkpt lat="43.5278" lon="1.46845">
        <ele>229.412</ele>
        <time>2016-05-22T08:33:36Z</time>
      </trkpt>
      <trkpt lat="43.52768" lon="1.46861">
        <ele>231.334</ele>
        <time>2016-05-22T08:33:44Z</time>
      </trkpt>
      <trkpt lat="43.5276" lon="1.46874">
        <ele>232.776</ele>
        <time>2016-05-22T08:33:50Z</time>
      </trkpt>
      <trkpt lat="43.52751" lon="1.46886">
        <ele>233.257</ele>
        <time>2016-05-22T08:33:56Z</time>
      </trkpt>
      <trkpt lat="43.52743" lon="1.469">
        <ele>233.738</ele>
        <time>2016-05-22T08:34:02Z</time>
      </trkpt>
      <trkpt lat="43.52735" lon="1.4691">
        <ele>234.218</ele>
        <time>2016-05-22T08:34:07Z</time>
      </trkpt>
      <trkpt lat="43.52728" lon="1.46921">
        <ele>235.66</ele>
        <time>2016-05-22T08:34:12Z</time>
      </trkpt>
      <trkpt lat="43.52723" lon="1.46929">
        <ele>237.583</ele>
        <time>2016-05-22T08:34:15Z</time>
      </trkpt>
      <trkpt lat="43.52718" lon="1.46936">
        <ele>239.025</ele>
        <time>2016-05-22T08:34:18Z</time>
      </trkpt>
      <trkpt lat="43.52713" lon="1.46946">
        <ele>239.505</ele>
        <time>2016-05-22T08:34:22Z</time>
      </trkpt>
      <trkpt lat="43.52703" lon="1.46959">
        <ele>240.467</ele>
        <time>2016-05-22T08:34:28Z</time>
      </trkpt>
      <trkpt lat="43.52694" lon="1.46973">
        <ele>241.428</ele>
        <time>2016-05-22T08:34:34Z</time>
      </trkpt>
      <trkpt lat="43.52687" lon="1.46986">
        <ele>243.351</ele>
        <time>2016-05-22T08:34:39Z</time>
      </trkpt>
      <trkpt lat="43.52678" lon="1.47">
        <ele>243.351</ele>
        <time>2016-05-22T08:34:45Z</time>
      </trkpt>
      <trkpt lat="43.52669" lon="1.47017">
        <ele>245.273</ele>
        <time>2016-05-22T08:34:51Z</time>
      </trkpt>
      <trkpt lat="43.52662" lon="1.47029">
        <ele>245.273</ele>
        <time>2016-05-22T08:34:56Z</time>
      </trkpt>
      <trkpt lat="43.52652" lon="1.47042">
        <ele>244.793</ele>
        <time>2016-05-22T08:35:02Z</time>
      </trkpt>
      <trkpt lat="43.52643" lon="1.47053">
        <ele>246.235</ele>
        <time>2016-05-22T08:35:07Z</time>
      </trkpt>
      <trkpt lat="43.52633" lon="1.47065">
        <ele>247.196</ele>
        <time>2016-05-22T08:35:13Z</time>
      </trkpt>
      <trkpt lat="43.52623" lon="1.4708">
        <ele>249.119</ele>
        <time>2016-05-22T08:35:19Z</time>
      </trkpt>
      <trkpt lat="43.52616" lon="1.47093">
        <ele>250.08</ele>
        <time>2016-05-22T08:35:24Z</time>
      </trkpt>
      <trkpt lat="43.52607" lon="1.47112">
        <ele>250.08</ele>
        <time>2016-05-22T08:35:31Z</time>
      </trkpt>
      <trkpt lat="43.52598" lon="1.47132">
        <ele>249.599</ele>
        <time>2016-05-22T08:35:38Z</time>
      </trkpt>
      <trkpt lat="43.52588" lon="1.47148">
        <ele>248.638</ele>
        <time>2016-05-22T08:35:44Z</time>
      </trkpt>
      <trkpt lat="43.5258" lon="1.4716">
        <ele>247.677</ele>
        <time>2016-05-22T08:35:49Z</time>
      </trkpt>
      <trkpt lat="43.52569" lon="1.47171">
        <ele>245.754</ele>
        <time>2016-05-22T08:35:55Z</time>
      </trkpt>
      <trkpt lat="43.52557" lon="1.47174">
        <ele>245.754</ele>
        <time>2016-05-22T08:36:00Z</time>
      </trkpt>
      <trkpt lat="43.52546" lon="1.47163">
        <ele>246.715</ele>
        <time>2016-05-22T08:36:06Z</time>
      </trkpt>
      <trkpt lat="43.52537" lon="1.47149">
        <ele>248.158</ele>
        <time>2016-05-22T08:36:12Z</time>
      </trkpt>
      <trkpt lat="43.52525" lon="1.47134">
        <ele>249.599</ele>
        <time>2016-05-22T08:36:19Z</time>
      </trkpt>
      <trkpt lat="43.52514" lon="1.47121">
        <ele>249.599</ele>
        <time>2016-05-22T08:36:25Z</time>
      </trkpt>
      <trkpt lat="43.52502" lon="1.4711">
        <ele>249.599</ele>
        <time>2016-05-22T08:36:31Z</time>
      </trkpt>
      <trkpt lat="43.52491" lon="1.47102">
        <ele>249.119</ele>
        <time>2016-05-22T08:36:36Z</time>
      </trkpt>
      <trkpt lat="43.52479" lon="1.47093">
        <ele>250.08</ele>
        <time>2016-05-22T08:36:42Z</time>
      </trkpt>
      <trkpt lat="43.52466" lon="1.47086">
        <ele>251.041</ele>
        <time>2016-05-22T08:36:48Z</time>
      </trkpt>
      <trkpt lat="43.52455" lon="1.47082">
        <ele>251.041</ele>
        <time>2016-05-22T08:36:53Z</time>
      </trkpt>
      <trkpt lat="43.52439" lon="1.47079">
        <ele>251.041</ele>
        <time>2016-05-22T08:37:00Z</time>
      </trkpt>
      <trkpt lat="43.52426" lon="1.47082">
        <ele>250.08</ele>
        <time>2016-05-22T08:37:06Z</time>
      </trkpt>
      <trkpt lat="43.52418" lon="1.4709">
        <ele>250.561</ele>
        <time>2016-05-22T08:37:11Z</time>
      </trkpt>
      <trkpt lat="43.5241" lon="1.47102">
        <ele>250.08</ele>
        <time>2016-05-22T08:37:16Z</time>
      </trkpt>
      <trkpt lat="43.524" lon="1.47117">
        <ele>249.599</ele>
        <time>2016-05-22T08:37:22Z</time>
      </trkpt>
      <trkpt lat="43.5239" lon="1.47136">
        <ele>249.599</ele>
        <time>2016-05-22T08:37:29Z</time>
      </trkpt>
      <trkpt lat="43.52381" lon="1.47151">
        <ele>249.119</ele>
        <time>2016-05-22T08:37:35Z</time>
      </trkpt>
      <trkpt lat="43.52373" lon="1.47168">
        <ele>249.119</ele>
        <time>2016-05-22T08:37:41Z</time>
      </trkpt>
      <trkpt lat="43.52366" lon="1.47187">
        <ele>249.119</ele>
        <time>2016-05-22T08:37:47Z</time>
      </trkpt>
      <trkpt lat="43.52358" lon="1.47208">
        <ele>247.677</ele>
        <time>2016-05-22T08:37:54Z</time>
      </trkpt>
      <trkpt lat="43.52351" lon="1.47226">
        <ele>247.677</ele>
        <time>2016-05-22T08:38:00Z</time>
      </trkpt>
      <trkpt lat="43.52341" lon="1.47238">
        <ele>248.638</ele>
        <time>2016-05-22T08:38:05Z</time>
      </trkpt>
      <trkpt lat="43.52326" lon="1.47247">
        <ele>249.599</ele>
        <time>2016-05-22T08:38:11Z</time>
      </trkpt>
      <trkpt lat="43.52314" lon="1.47258">
        <ele>249.599</ele>
        <time>2016-05-22T08:38:17Z</time>
      </trkpt>
      <trkpt lat="43.52306" lon="1.47272">
        <ele>250.08</ele>
        <time>2016-05-22T08:38:22Z</time>
      </trkpt>
      <trkpt lat="43.52297" lon="1.47289">
        <ele>250.561</ele>
        <time>2016-05-22T08:38:28Z</time>
      </trkpt>
      <trkpt lat="43.52289" lon="1.47303">
        <ele>250.561</ele>
        <time>2016-05-22T08:38:33Z</time>
      </trkpt>
      <trkpt lat="43.5228" lon="1.47318">
        <ele>250.08</ele>
        <time>2016-05-22T08:38:39Z</time>
      </trkpt>
      <trkpt lat="43.52267" lon="1.47333">
        <ele>249.599</ele>
        <time>2016-05-22T08:38:46Z</time>
      </trkpt>
      <trkpt lat="43.52255" lon="1.47339">
        <ele>250.08</ele>
        <time>2016-05-22T08:38:51Z</time>
      </trkpt>
      <trkpt lat="43.52249" lon="1.47338">
        <ele>250.561</ele>
        <time>2016-05-22T08:38:54Z</time>
      </trkpt>
      <trkpt lat="43.52234" lon="1.47324">
        <ele>251.522</ele>
        <time>2016-05-22T08:39:02Z</time>
      </trkpt>
      <trkpt lat="43.52223" lon="1.47313">
        <ele>252.003</ele>
        <time>2016-05-22T08:39:08Z</time>
      </trkpt>
      <trkpt lat="43.52213" lon="1.47301">
        <ele>251.522</ele>
        <time>2016-05-22T08:39:14Z</time>
      </trkpt>
      <trkpt lat="43.52204" lon="1.4729">
        <ele>251.041</ele>
        <time>2016-05-22T08:39:20Z</time>
      </trkpt>
      <trkpt lat="43.52191" lon="1.47278">
        <ele>250.561</ele>
        <time>2016-05-22T08:39:27Z</time>
      </trkpt>
      <trkpt lat="43.5218" lon="1.47266">
        <ele>252.483</ele>
        <time>2016-05-22T08:39:33Z</time>
      </trkpt>
      <trkpt lat="43.52167" lon="1.47252">
        <ele>253.445</ele>
        <time>2016-05-22T08:39:40Z</time>
      </trkpt>
      <trkpt lat="43.52158" lon="1.47243">
        <ele>254.406</ele>
        <time>2016-05-22T08:39:45Z</time>
      </trkpt>
      <trkpt lat="43.52147" lon="1.47231">
        <ele>254.887</ele>
        <time>2016-05-22T08:39:51Z</time>
      </trkpt>
      <trkpt lat="43.52135" lon="1.4722">
        <ele>255.848</ele>
        <time>2016-05-22T08:39:57Z</time>
      </trkpt>
      <trkpt lat="43.52124" lon="1.4721">
        <ele>256.809</ele>
        <time>2016-05-22T08:40:03Z</time>
      </trkpt>
      <trkpt lat="43.52115" lon="1.47201">
        <ele>258.251</ele>
        <time>2016-05-22T08:40:08Z</time>
      </trkpt>
      <trkpt lat="43.52105" lon="1.47194">
        <ele>260.174</ele>
        <time>2016-05-22T08:40:14Z</time>
      </trkpt>
      <trkpt lat="43.52092" lon="1.47189">
        <ele>261.135</ele>
        <time>2016-05-22T08:40:20Z</time>
      </trkpt>
      <trkpt lat="43.52079" lon="1.47186">
        <ele>262.577</ele>
        <time>2016-05-22T08:40:27Z</time>
      </trkpt>
      <trkpt lat="43.52067" lon="1.47186">
        <ele>262.577</ele>
        <time>2016-05-22T08:40:33Z</time>
      </trkpt>
      <trkpt lat="43.52053" lon="1.47185">
        <ele>262.097</ele>
        <time>2016-05-22T08:40:40Z</time>
      </trkpt>
      <trkpt lat="43.5205" lon="1.47185">
        <ele>262.097</ele>
        <time>2016-05-22T08:40:41Z</time>
      </trkpt>
      <trkpt lat="43.52043" lon="1.47184">
        <ele>263.058</ele>
        <time>2016-05-22T08:40:45Z</time>
      </trkpt>
      <trkpt lat="43.52031" lon="1.4718">
        <ele>264.981</ele>
        <time>2016-05-22T08:40:50Z</time>
      </trkpt>
      <trkpt lat="43.52019" lon="1.47172">
        <ele>266.422</ele>
        <time>2016-05-22T08:40:56Z</time>
      </trkpt>
      <trkpt lat="43.52008" lon="1.47161">
        <ele>267.384</ele>
        <time>2016-05-22T08:41:01Z</time>
      </trkpt>
      <trkpt lat="43.51992" lon="1.47152">
        <ele>268.826</ele>
        <time>2016-05-22T08:41:08Z</time>
      </trkpt>
      <trkpt lat="43.51979" lon="1.47147">
        <ele>268.826</ele>
        <time>2016-05-22T08:41:14Z</time>
      </trkpt>
      <trkpt lat="43.51969" lon="1.47145">
        <ele>268.826</ele>
        <time>2016-05-22T08:41:18Z</time>
      </trkpt>
      <trkpt lat="43.51956" lon="1.47145">
        <ele>268.826</ele>
        <time>2016-05-22T08:41:24Z</time>
      </trkpt>
      <trkpt lat="43.5195" lon="1.47147">
        <ele>269.307</ele>
        <time>2016-05-22T08:41:27Z</time>
      </trkpt>
      <trkpt lat="43.51941" lon="1.47158">
        <ele>270.268</ele>
        <time>2016-05-22T08:41:34Z</time>
      </trkpt>
      <trkpt lat="43.51931" lon="1.47169">
        <ele>269.787</ele>
        <time>2016-05-22T08:41:40Z</time>
      </trkpt>
      <trkpt lat="43.51925" lon="1.47175">
        <ele>269.307</ele>
        <time>2016-05-22T08:41:44Z</time>
      </trkpt>
      <trkpt lat="43.51914" lon="1.47183">
        <ele>267.384</ele>
        <time>2016-05-22T08:41:50Z</time>
      </trkpt>
      <trkpt lat="43.51902" lon="1.4719">
        <ele>267.865</ele>
        <time>2016-05-22T08:41:56Z</time>
      </trkpt>
      <trkpt lat="43.51889" lon="1.47197">
        <ele>266.903</ele>
        <time>2016-05-22T08:42:02Z</time>
      </trkpt>
      <trkpt lat="43.51882" lon="1.47201">
        <ele>266.903</ele>
        <time>2016-05-22T08:42:06Z</time>
      </trkpt>
      <trkpt lat="43.51868" lon="1.47207">
        <ele>265.942</ele>
        <time>2016-05-22T08:42:12Z</time>
      </trkpt>
      <trkpt lat="43.51855" lon="1.4721">
        <ele>263.539</ele>
        <time>2016-05-22T08:42:18Z</time>
      </trkpt>
      <trkpt lat="43.51838" lon="1.47213">
        <ele>262.577</ele>
        <time>2016-05-22T08:42:25Z</time>
      </trkpt>
      <trkpt lat="43.51822" lon="1.47215">
        <ele>263.058</ele>
        <time>2016-05-22T08:42:31Z</time>
      </trkpt>
      <trkpt lat="43.51806" lon="1.47219">
        <ele>263.539</ele>
        <time>2016-05-22T08:42:37Z</time>
      </trkpt>
      <trkpt lat="43.51791" lon="1.47222">
        <ele>264.019</ele>
        <time>2016-05-22T08:42:43Z</time>
      </trkpt>
      <trkpt lat="43.51778" lon="1.47223">
        <ele>264.019</ele>
        <time>2016-05-22T08:42:48Z</time>
      </trkpt>
      <trkpt lat="43.51766" lon="1.47224">
        <ele>264.019</ele>
        <time>2016-05-22T08:42:53Z</time>
      </trkpt>
      <trkpt lat="43.51752" lon="1.47226">
        <ele>264.981</ele>
        <time>2016-05-22T08:42:59Z</time>
      </trkpt>
      <trkpt lat="43.51749" lon="1.47225">
        <ele>265.461</ele>
        <time>2016-05-22T08:43:01Z</time>
      </trkpt>
      <trkpt lat="43.51732" lon="1.47226">
        <ele>265.942</ele>
        <time>2016-05-22T08:43:08Z</time>
      </trkpt>
      <trkpt lat="43.51718" lon="1.47229">
        <ele>266.422</ele>
        <time>2016-05-22T08:43:13Z</time>
      </trkpt>
      <trkpt lat="43.51706" lon="1.4723">
        <ele>263.539</ele>
        <time>2016-05-22T08:43:18Z</time>
      </trkpt>
      <trkpt lat="43.51693" lon="1.47236">
        <ele>262.097</ele>
        <time>2016-05-22T08:43:23Z</time>
      </trkpt>
      <trkpt lat="43.51679" lon="1.4724">
        <ele>261.135</ele>
        <time>2016-05-22T08:43:28Z</time>
      </trkpt>
      <trkpt lat="43.51662" lon="1.47245">
        <ele>262.097</ele>
        <time>2016-05-22T08:43:34Z</time>
      </trkpt>
      <trkpt lat="43.51649" lon="1.4725">
        <ele>261.135</ele>
        <time>2016-05-22T08:43:39Z</time>
      </trkpt>
      <trkpt lat="43.51636" lon="1.47255">
        <ele>260.655</ele>
        <time>2016-05-22T08:43:44Z</time>
      </trkpt>
      <trkpt lat="43.51622" lon="1.4726">
        <ele>260.174</ele>
        <time>2016-05-22T08:43:49Z</time>
      </trkpt>
      <trkpt lat="43.51608" lon="1.47265">
        <ele>258.732</ele>
        <time>2016-05-22T08:43:55Z</time>
      </trkpt>
      <trkpt lat="43.51594" lon="1.47273">
        <ele>257.771</ele>
        <time>2016-05-22T08:44:01Z</time>
      </trkpt>
      <trkpt lat="43.51577" lon="1.47279">
        <ele>256.329</ele>
        <time>2016-05-22T08:44:08Z</time>
      </trkpt>
      <trkpt lat="43.51562" lon="1.47287">
        <ele>258.732</ele>
        <time>2016-05-22T08:44:14Z</time>
      </trkpt>
      <trkpt lat="43.51537" lon="1.47296">
        <ele>258.732</ele>
        <time>2016-05-22T08:44:23Z</time>
      </trkpt>
      <trkpt lat="43.51524" lon="1.47297">
        <ele>257.771</ele>
        <time>2016-05-22T08:44:29Z</time>
      </trkpt>
      <trkpt lat="43.51515" lon="1.47299">
        <ele>257.29</ele>
        <time>2016-05-22T08:44:33Z</time>
      </trkpt>
      <trkpt lat="43.51501" lon="1.47303">
        <ele>259.693</ele>
        <time>2016-05-22T08:44:39Z</time>
      </trkpt>
      <trkpt lat="43.51491" lon="1.47308">
        <ele>261.135</ele>
        <time>2016-05-22T08:44:43Z</time>
      </trkpt>
      <trkpt lat="43.51473" lon="1.4731">
        <ele>263.058</ele>
        <time>2016-05-22T08:44:50Z</time>
      </trkpt>
      <trkpt lat="43.51461" lon="1.47312">
        <ele>263.539</ele>
        <time>2016-05-22T08:44:56Z</time>
      </trkpt>
      <trkpt lat="43.5145" lon="1.47312">
        <ele>263.539</ele>
        <time>2016-05-22T08:45:01Z</time>
      </trkpt>
      <trkpt lat="43.51449" lon="1.47312">
        <ele>263.539</ele>
        <time>2016-05-22T08:45:02Z</time>
      </trkpt>
      <trkpt lat="43.51446" lon="1.473">
        <ele>263.058</ele>
        <time>2016-05-22T08:45:07Z</time>
      </trkpt>
      <trkpt lat="43.51439" lon="1.47291">
        <ele>262.577</ele>
        <time>2016-05-22T08:45:11Z</time>
      </trkpt>
      <trkpt lat="43.51426" lon="1.47283">
        <ele>262.097</ele>
        <time>2016-05-22T08:45:16Z</time>
      </trkpt>
      <trkpt lat="43.51412" lon="1.47274">
        <ele>261.616</ele>
        <time>2016-05-22T08:45:21Z</time>
      </trkpt>
      <trkpt lat="43.5141" lon="1.47272">
        <ele>261.616</ele>
        <time>2016-05-22T08:45:22Z</time>
      </trkpt>
      <trkpt lat="43.514" lon="1.47263">
        <ele>261.616</ele>
        <time>2016-05-22T08:45:27Z</time>
      </trkpt>
      <trkpt lat="43.51389" lon="1.47248">
        <ele>260.655</ele>
        <time>2016-05-22T08:45:33Z</time>
      </trkpt>
      <trkpt lat="43.51385" lon="1.47232">
        <ele>259.213</ele>
        <time>2016-05-22T08:45:38Z</time>
      </trkpt>
      <trkpt lat="43.51385" lon="1.47215">
        <ele>257.771</ele>
        <time>2016-05-22T08:45:44Z</time>
      </trkpt>
      <trkpt lat="43.51384" lon="1.47197">
        <ele>258.251</ele>
        <time>2016-05-22T08:45:50Z</time>
      </trkpt>
      <trkpt lat="43.51387" lon="1.47177">
        <ele>257.771</ele>
        <time>2016-05-22T08:45:56Z</time>
      </trkpt>
      <trkpt lat="43.51391" lon="1.47161">
        <ele>258.251</ele>
        <time>2016-05-22T08:46:02Z</time>
      </trkpt>
      <trkpt lat="43.51396" lon="1.47142">
        <ele>257.29</ele>
        <time>2016-05-22T08:46:08Z</time>
      </trkpt>
      <trkpt lat="43.514" lon="1.47129">
        <ele>255.367</ele>
        <time>2016-05-22T08:46:13Z</time>
      </trkpt>
      <trkpt lat="43.51406" lon="1.47113">
        <ele>251.041</ele>
        <time>2016-05-22T08:46:18Z</time>
      </trkpt>
      <trkpt lat="43.51411" lon="1.47101">
        <ele>246.715</ele>
        <time>2016-05-22T08:46:23Z</time>
      </trkpt>
      <trkpt lat="43.51415" lon="1.47088">
        <ele>243.832</ele>
        <time>2016-05-22T08:46:28Z</time>
      </trkpt>
      <trkpt lat="43.51417" lon="1.47076">
        <ele>242.87</ele>
        <time>2016-05-22T08:46:32Z</time>
      </trkpt>
      <trkpt lat="43.51421" lon="1.47062">
        <ele>242.87</ele>
        <time>2016-05-22T08:46:37Z</time>
      </trkpt>
      <trkpt lat="43.51425" lon="1.47045">
        <ele>241.909</ele>
        <time>2016-05-22T08:46:42Z</time>
      </trkpt>
      <trkpt lat="43.51426" lon="1.47023">
        <ele>247.677</ele>
        <time>2016-05-22T08:46:48Z</time>
      </trkpt>
      <trkpt lat="43.51426" lon="1.47006">
        <ele>255.367</ele>
        <time>2016-05-22T08:46:53Z</time>
      </trkpt>
      <trkpt lat="43.51428" lon="1.46993">
        <ele>258.251</ele>
        <time>2016-05-22T08:46:57Z</time>
      </trkpt>
      <trkpt lat="43.51427" lon="1.46987">
        <ele>258.732</ele>
        <time>2016-05-22T08:46:59Z</time>
      </trkpt>
      <trkpt lat="43.51428" lon="1.46972">
        <ele>262.577</ele>
        <time>2016-05-22T08:47:03Z</time>
      </trkpt>
      <trkpt lat="43.51426" lon="1.46957">
        <ele>265.461</ele>
        <time>2016-05-22T08:47:08Z</time>
      </trkpt>
      <trkpt lat="43.51426" lon="1.46945">
        <ele>266.422</ele>
        <time>2016-05-22T08:47:13Z</time>
      </trkpt>
      <trkpt lat="43.51425" lon="1.46935">
        <ele>266.422</ele>
        <time>2016-05-22T08:47:17Z</time>
      </trkpt>
      <trkpt lat="43.51426" lon="1.46919">
        <ele>265.461</ele>
        <time>2016-05-22T08:47:23Z</time>
      </trkpt>
      <trkpt lat="43.51431" lon="1.46899">
        <ele>261.135</ele>
        <time>2016-05-22T08:47:30Z</time>
      </trkpt>
      <trkpt lat="43.51431" lon="1.46883">
        <ele>261.616</ele>
        <time>2016-05-22T08:47:36Z</time>
      </trkpt>
      <trkpt lat="43.51435" lon="1.46868">
        <ele>260.174</ele>
        <time>2016-05-22T08:47:42Z</time>
      </trkpt>
      <trkpt lat="43.51446" lon="1.46858">
        <ele>256.329</ele>
        <time>2016-05-22T08:47:47Z</time>
      </trkpt>
      <trkpt lat="43.51449" lon="1.46851">
        <ele>255.848</ele>
        <time>2016-05-22T08:47:50Z</time>
      </trkpt>
      <trkpt lat="43.51457" lon="1.46833">
        <ele>258.732</ele>
        <time>2016-05-22T08:47:57Z</time>
      </trkpt>
      <trkpt lat="43.51466" lon="1.46814">
        <ele>261.616</ele>
        <time>2016-05-22T08:48:04Z</time>
      </trkpt>
      <trkpt lat="43.51475" lon="1.46793">
        <ele>263.539</ele>
        <time>2016-05-22T08:48:11Z</time>
      </trkpt>
      <trkpt lat="43.51482" lon="1.46776">
        <ele>265.461</ele>
        <time>2016-05-22T08:48:17Z</time>
      </trkpt>
      <trkpt lat="43.51491" lon="1.46755">
        <ele>264.5</ele>
        <time>2016-05-22T08:48:24Z</time>
      </trkpt>
      <trkpt lat="43.51498" lon="1.46738">
        <ele>263.058</ele>
        <time>2016-05-22T08:48:30Z</time>
      </trkpt>
      <trkpt lat="43.51504" lon="1.46723">
        <ele>260.655</ele>
        <time>2016-05-22T08:48:35Z</time>
      </trkpt>
      <trkpt lat="43.51508" lon="1.46709">
        <ele>261.616</ele>
        <time>2016-05-22T08:48:39Z</time>
      </trkpt>
      <trkpt lat="43.51514" lon="1.46689">
        <ele>261.616</ele>
        <time>2016-05-22T08:48:45Z</time>
      </trkpt>
      <trkpt lat="43.51519" lon="1.46671">
        <ele>264.981</ele>
        <time>2016-05-22T08:48:51Z</time>
      </trkpt>
      <trkpt lat="43.51522" lon="1.46657">
        <ele>267.384</ele>
        <time>2016-05-22T08:48:56Z</time>
      </trkpt>
      <trkpt lat="43.5153" lon="1.46639">
        <ele>266.903</ele>
        <time>2016-05-22T08:49:02Z</time>
      </trkpt>
      <trkpt lat="43.51539" lon="1.46616">
        <ele>264.981</ele>
        <time>2016-05-22T08:49:09Z</time>
      </trkpt>
      <trkpt lat="43.51543" lon="1.46599">
        <ele>265.942</ele>
        <time>2016-05-22T08:49:14Z</time>
      </trkpt>
      <trkpt lat="43.51549" lon="1.46588">
        <ele>263.539</ele>
        <time>2016-05-22T08:49:18Z</time>
      </trkpt>
      <trkpt lat="43.51552" lon="1.46573">
        <ele>263.058</ele>
        <time>2016-05-22T08:49:23Z</time>
      </trkpt>
      <trkpt lat="43.51558" lon="1.46558">
        <ele>262.577</ele>
        <time>2016-05-22T08:49:28Z</time>
      </trkpt>
      <trkpt lat="43.51565" lon="1.46544">
        <ele>263.058</ele>
        <time>2016-05-22T08:49:33Z</time>
      </trkpt>
      <trkpt lat="43.51574" lon="1.46531">
        <ele>261.135</ele>
        <time>2016-05-22T08:49:39Z</time>
      </trkpt>
      <trkpt lat="43.51578" lon="1.46517">
        <ele>261.135</ele>
        <time>2016-05-22T08:49:44Z</time>
      </trkpt>
      <trkpt lat="43.51582" lon="1.46505">
        <ele>261.135</ele>
        <time>2016-05-22T08:49:48Z</time>
      </trkpt>
      <trkpt lat="43.51593" lon="1.46486">
        <ele>258.251</ele>
        <time>2016-05-22T08:49:55Z</time>
      </trkpt>
      <trkpt lat="43.51604" lon="1.46464">
        <ele>260.174</ele>
        <time>2016-05-22T08:50:02Z</time>
      </trkpt>
      <trkpt lat="43.51614" lon="1.46446">
        <ele>260.655</ele>
        <time>2016-05-22T08:50:08Z</time>
      </trkpt>
      <trkpt lat="43.51624" lon="1.46431">
        <ele>259.693</ele>
        <time>2016-05-22T08:50:13Z</time>
      </trkpt>
      <trkpt lat="43.51631" lon="1.46413">
        <ele>261.616</ele>
        <time>2016-05-22T08:50:19Z</time>
      </trkpt>
      <trkpt lat="43.5164" lon="1.46398">
        <ele>262.097</ele>
        <time>2016-05-22T08:50:24Z</time>
      </trkpt>
      <trkpt lat="43.51648" lon="1.46381">
        <ele>265.461</ele>
        <time>2016-05-22T08:50:30Z</time>
      </trkpt>
      <trkpt lat="43.51656" lon="1.46368">
        <ele>265.461</ele>
        <time>2016-05-22T08:50:35Z</time>
      </trkpt>
      <trkpt lat="43.51665" lon="1.46353">
        <ele>266.422</ele>
        <time>2016-05-22T08:50:41Z</time>
      </trkpt>
      <trkpt lat="43.5167" lon="1.46337">
        <ele>271.229</ele>
        <time>2016-05-22T08:50:47Z</time>
      </trkpt>
      <trkpt lat="43.51677" lon="1.46322">
        <ele>275.555</ele>
        <time>2016-05-22T08:50:53Z</time>
      </trkpt>
      <trkpt lat="43.51685" lon="1.46305">
        <ele>276.516</ele>
        <time>2016-05-22T08:50:59Z</time>
      </trkpt>
      <trkpt lat="43.51693" lon="1.46288">
        <ele>277.958</ele>
        <time>2016-05-22T08:51:05Z</time>
      </trkpt>
      <trkpt lat="43.51696" lon="1.46276">
        <ele>277.958</ele>
        <time>2016-05-22T08:51:09Z</time>
      </trkpt>
      <trkpt lat="43.5169" lon="1.4626">
        <ele>277.958</ele>
        <time>2016-05-22T08:51:16Z</time>
      </trkpt>
      <trkpt lat="43.51679" lon="1.46258">
        <ele>278.439</ele>
        <time>2016-05-22T08:51:21Z</time>
      </trkpt>
      <trkpt lat="43.51674" lon="1.46255">
        <ele>278.439</ele>
        <time>2016-05-22T08:51:23Z</time>
      </trkpt>
      <trkpt lat="43.51673" lon="1.46248">
        <ele>278.439</ele>
        <time>2016-05-22T08:51:26Z</time>
      </trkpt>
      <trkpt lat="43.51675" lon="1.46245">
        <ele>278.439</ele>
        <time>2016-05-22T08:51:30Z</time>
      </trkpt>
      <trkpt lat="43.51667" lon="1.46244">
        <ele>277.478</ele>
        <time>2016-05-22T08:51:34Z</time>
      </trkpt>
      <trkpt lat="43.5166" lon="1.46243">
        <ele>276.997</ele>
        <time>2016-05-22T08:51:37Z</time>
      </trkpt>
      <trkpt lat="43.51646" lon="1.46241">
        <ele>276.997</ele>
        <time>2016-05-22T08:51:43Z</time>
      </trkpt>
      <trkpt lat="43.51633" lon="1.46239">
        <ele>276.997</ele>
        <time>2016-05-22T08:51:49Z</time>
      </trkpt>
      <trkpt lat="43.51621" lon="1.46238">
        <ele>276.036</ele>
        <time>2016-05-22T08:51:55Z</time>
      </trkpt>
      <trkpt lat="43.51609" lon="1.46236">
        <ele>276.516</ele>
        <time>2016-05-22T08:52:01Z</time>
      </trkpt>
      <trkpt lat="43.51597" lon="1.46232">
        <ele>276.516</ele>
        <time>2016-05-22T08:52:07Z</time>
      </trkpt>
      <trkpt lat="43.51591" lon="1.46222">
        <ele>275.555</ele>
        <time>2016-05-22T08:52:12Z</time>
      </trkpt>
      <trkpt lat="43.5159" lon="1.46211">
        <ele>275.555</ele>
        <time>2016-05-22T08:52:16Z</time>
      </trkpt>
      <trkpt lat="43.5159" lon="1.46206">
        <ele>274.113</ele>
        <time>2016-05-22T08:52:18Z</time>
      </trkpt>
      <trkpt lat="43.51592" lon="1.46184">
        <ele>272.19</ele>
        <time>2016-05-22T08:52:25Z</time>
      </trkpt>
      <trkpt lat="43.51598" lon="1.46168">
        <ele>267.865</ele>
        <time>2016-05-22T08:52:31Z</time>
      </trkpt>
      <trkpt lat="43.51601" lon="1.46145">
        <ele>268.826</ele>
        <time>2016-05-22T08:52:38Z</time>
      </trkpt>
      <trkpt lat="43.51605" lon="1.46126">
        <ele>268.826</ele>
        <time>2016-05-22T08:52:44Z</time>
      </trkpt>
      <trkpt lat="43.51613" lon="1.46108">
        <ele>268.826</ele>
        <time>2016-05-22T08:52:50Z</time>
      </trkpt>
      <trkpt lat="43.51621" lon="1.46093">
        <ele>265.942</ele>
        <time>2016-05-22T08:52:55Z</time>
      </trkpt>
      <trkpt lat="43.51626" lon="1.46069">
        <ele>265.461</ele>
        <time>2016-05-22T08:53:02Z</time>
      </trkpt>
      <trkpt lat="43.51629" lon="1.46051">
        <ele>266.422</ele>
        <time>2016-05-22T08:53:07Z</time>
      </trkpt>
      <trkpt lat="43.51634" lon="1.46028">
        <ele>267.865</ele>
        <time>2016-05-22T08:53:14Z</time>
      </trkpt>
      <trkpt lat="43.51639" lon="1.46006">
        <ele>269.787</ele>
        <time>2016-05-22T08:53:21Z</time>
      </trkpt>
      <trkpt lat="43.51642" lon="1.45996">
        <ele>269.787</ele>
        <time>2016-05-22T08:53:24Z</time>
      </trkpt>
      <trkpt lat="43.51645" lon="1.45986">
        <ele>270.268</ele>
        <time>2016-05-22T08:53:27Z</time>
      </trkpt>
      <trkpt lat="43.51653" lon="1.45979">
        <ele>267.865</ele>
        <time>2016-05-22T08:53:31Z</time>
      </trkpt>
      <trkpt lat="43.51665" lon="1.4598">
        <ele>267.865</ele>
        <time>2016-05-22T08:53:36Z</time>
      </trkpt>
      <trkpt lat="43.51676" lon="1.45987">
        <ele>266.903</ele>
        <time>2016-05-22T08:53:41Z</time>
      </trkpt>
      <trkpt lat="43.51694" lon="1.45998">
        <ele>265.461</ele>
        <time>2016-05-22T08:53:49Z</time>
      </trkpt>
      <trkpt lat="43.51708" lon="1.46007">
        <ele>265.942</ele>
        <time>2016-05-22T08:53:56Z</time>
      </trkpt>
      <trkpt lat="43.51721" lon="1.46014">
        <ele>267.865</ele>
        <time>2016-05-22T08:54:02Z</time>
      </trkpt>
      <trkpt lat="43.51734" lon="1.46021">
        <ele>271.229</ele>
        <time>2016-05-22T08:54:09Z</time>
      </trkpt>
      <trkpt lat="43.51744" lon="1.46027">
        <ele>274.113</ele>
        <time>2016-05-22T08:54:14Z</time>
      </trkpt>
      <trkpt lat="43.51759" lon="1.46036">
        <ele>274.113</ele>
        <time>2016-05-22T08:54:22Z</time>
      </trkpt>
      <trkpt lat="43.51769" lon="1.46042">
        <ele>274.594</ele>
        <time>2016-05-22T08:54:27Z</time>
      </trkpt>
      <trkpt lat="43.5178" lon="1.46047">
        <ele>274.113</ele>
        <time>2016-05-22T08:54:32Z</time>
      </trkpt>
      <trkpt lat="43.51794" lon="1.46055">
        <ele>275.555</ele>
        <time>2016-05-22T08:54:38Z</time>
      </trkpt>
      <trkpt lat="43.51805" lon="1.46061">
        <ele>276.516</ele>
        <time>2016-05-22T08:54:44Z</time>
      </trkpt>
      <trkpt lat="43.51819" lon="1.46068">
        <ele>276.036</ele>
        <time>2016-05-22T08:54:50Z</time>
      </trkpt>
      <trkpt lat="43.51833" lon="1.46073">
        <ele>276.516</ele>
        <time>2016-05-22T08:54:56Z</time>
      </trkpt>
      <trkpt lat="43.51848" lon="1.46078">
        <ele>276.516</ele>
        <time>2016-05-22T08:55:02Z</time>
      </trkpt>
      <trkpt lat="43.51864" lon="1.46085">
        <ele>276.036</ele>
        <time>2016-05-22T08:55:09Z</time>
      </trkpt>
      <trkpt lat="43.51881" lon="1.46092">
        <ele>274.113</ele>
        <time>2016-05-22T08:55:16Z</time>
      </trkpt>
      <trkpt lat="43.51895" lon="1.46096">
        <ele>273.152</ele>
        <time>2016-05-22T08:55:22Z</time>
      </trkpt>
      <trkpt lat="43.51902" lon="1.46086">
        <ele>273.152</ele>
        <time>2016-05-22T08:55:26Z</time>
      </trkpt>
      <trkpt lat="43.51907" lon="1.46067">
        <ele>274.594</ele>
        <time>2016-05-22T08:55:32Z</time>
      </trkpt>
      <trkpt lat="43.5191" lon="1.4605">
        <ele>275.074</ele>
        <time>2016-05-22T08:55:37Z</time>
      </trkpt>
      <trkpt lat="43.51914" lon="1.46034">
        <ele>276.036</ele>
        <time>2016-05-22T08:55:42Z</time>
      </trkpt>
      <trkpt lat="43.51918" lon="1.46013">
        <ele>276.036</ele>
        <time>2016-05-22T08:55:48Z</time>
      </trkpt>
      <trkpt lat="43.51924" lon="1.45991">
        <ele>276.036</ele>
        <time>2016-05-22T08:55:55Z</time>
      </trkpt>
      <trkpt lat="43.51929" lon="1.45971">
        <ele>276.036</ele>
        <time>2016-05-22T08:56:01Z</time>
      </trkpt>
      <trkpt lat="43.51933" lon="1.45956">
        <ele>276.036</ele>
        <time>2016-05-22T08:56:06Z</time>
      </trkpt>
      <trkpt lat="43.51938" lon="1.45939">
        <ele>276.036</ele>
        <time>2016-05-22T08:56:11Z</time>
      </trkpt>
      <trkpt lat="43.51947" lon="1.45916">
        <ele>275.074</ele>
        <time>2016-05-22T08:56:18Z</time>
      </trkpt>
      <trkpt lat="43.51958" lon="1.45901">
        <ele>274.113</ele>
        <time>2016-05-22T08:56:24Z</time>
      </trkpt>
      <trkpt lat="43.51969" lon="1.45886">
        <ele>272.671</ele>
        <time>2016-05-22T08:56:30Z</time>
      </trkpt>
      <trkpt lat="43.5198" lon="1.45873">
        <ele>272.19</ele>
        <time>2016-05-22T08:56:36Z</time>
      </trkpt>
      <trkpt lat="43.51991" lon="1.45858">
        <ele>271.71</ele>
        <time>2016-05-22T08:56:42Z</time>
      </trkpt>
      <trkpt lat="43.51999" lon="1.45843">
        <ele>271.229</ele>
        <time>2016-05-22T08:56:47Z</time>
      </trkpt>
      <trkpt lat="43.52011" lon="1.45829">
        <ele>270.268</ele>
        <time>2016-05-22T08:56:53Z</time>
      </trkpt>
      <trkpt lat="43.52019" lon="1.45817">
        <ele>269.787</ele>
        <time>2016-05-22T08:56:58Z</time>
      </trkpt>
      <trkpt lat="43.52029" lon="1.45795">
        <ele>268.826</ele>
        <time>2016-05-22T08:57:05Z</time>
      </trkpt>
      <trkpt lat="43.5204" lon="1.45775">
        <ele>268.345</ele>
        <time>2016-05-22T08:57:12Z</time>
      </trkpt>
      <trkpt lat="43.5205" lon="1.45758">
        <ele>267.384</ele>
        <time>2016-05-22T08:57:18Z</time>
      </trkpt>
      <trkpt lat="43.52061" lon="1.45739">
        <ele>264.981</ele>
        <time>2016-05-22T08:57:24Z</time>
      </trkpt>
      <trkpt lat="43.5207" lon="1.45725">
        <ele>263.058</ele>
        <time>2016-05-22T08:57:29Z</time>
      </trkpt>
      <trkpt lat="43.52081" lon="1.45709">
        <ele>261.616</ele>
        <time>2016-05-22T08:57:35Z</time>
      </trkpt>
      <trkpt lat="43.52091" lon="1.45693">
        <ele>260.655</ele>
        <time>2016-05-22T08:57:41Z</time>
      </trkpt>
      <trkpt lat="43.52101" lon="1.45679">
        <ele>259.693</ele>
        <time>2016-05-22T08:57:46Z</time>
      </trkpt>
      <trkpt lat="43.52113" lon="1.45664">
        <ele>258.251</ele>
        <time>2016-05-22T08:57:52Z</time>
      </trkpt>
      <trkpt lat="43.52122" lon="1.4565">
        <ele>257.771</ele>
        <time>2016-05-22T08:57:57Z</time>
      </trkpt>
      <trkpt lat="43.52132" lon="1.45633">
        <ele>256.329</ele>
        <time>2016-05-22T08:58:03Z</time>
      </trkpt>
      <trkpt lat="43.52144" lon="1.45616">
        <ele>255.367</ele>
        <time>2016-05-22T08:58:09Z</time>
      </trkpt>
      <trkpt lat="43.52155" lon="1.45601">
        <ele>254.406</ele>
        <time>2016-05-22T08:58:15Z</time>
      </trkpt>
      <trkpt lat="43.52166" lon="1.45588">
        <ele>252.964</ele>
        <time>2016-05-22T08:58:21Z</time>
      </trkpt>
      <trkpt lat="43.52172" lon="1.45573">
        <ele>252.003</ele>
        <time>2016-05-22T08:58:26Z</time>
      </trkpt>
      <trkpt lat="43.52187" lon="1.4556">
        <ele>249.599</ele>
        <time>2016-05-22T08:58:32Z</time>
      </trkpt>
      <trkpt lat="43.52201" lon="1.45541">
        <ele>246.235</ele>
        <time>2016-05-22T08:58:39Z</time>
      </trkpt>
      <trkpt lat="43.52211" lon="1.45519">
        <ele>242.87</ele>
        <time>2016-05-22T08:58:46Z</time>
      </trkpt>
      <trkpt lat="43.52218" lon="1.45495">
        <ele>239.505</ele>
        <time>2016-05-22T08:58:53Z</time>
      </trkpt>
      <trkpt lat="43.52223" lon="1.45477">
        <ele>237.102</ele>
        <time>2016-05-22T08:58:58Z</time>
      </trkpt>
      <trkpt lat="43.52229" lon="1.45459">
        <ele>234.699</ele>
        <time>2016-05-22T08:59:03Z</time>
      </trkpt>
      <trkpt lat="43.52235" lon="1.45443">
        <ele>232.296</ele>
        <time>2016-05-22T08:59:08Z</time>
      </trkpt>
      <trkpt lat="43.52247" lon="1.45426">
        <ele>230.373</ele>
        <time>2016-05-22T08:59:14Z</time>
      </trkpt>
      <trkpt lat="43.52257" lon="1.45408">
        <ele>226.047</ele>
        <time>2016-05-22T08:59:20Z</time>
      </trkpt>
      <trkpt lat="43.52257" lon="1.45408">
        <ele>226.047</ele>
        <time>2016-05-22T08:59:20Z</time>
      </trkpt>
      <trkpt lat="43.52258" lon="1.45404">
        <ele>225.567</ele>
        <time>2016-05-22T08:59:21Z</time>
      </trkpt>
      <trkpt lat="43.52268" lon="1.45384">
        <ele>222.682</ele>
        <time>2016-05-22T08:59:27Z</time>
      </trkpt>
      <trkpt lat="43.52274" lon="1.45367">
        <ele>220.76</ele>
        <time>2016-05-22T08:59:32Z</time>
      </trkpt>
      <trkpt lat="43.52276" lon="1.45355">
        <ele>218.837</ele>
        <time>2016-05-22T08:59:36Z</time>
      </trkpt>
      <trkpt lat="43.52284" lon="1.45356">
        <ele>219.318</ele>
        <time>2016-05-22T08:59:41Z</time>
      </trkpt>
      <trkpt lat="43.52294" lon="1.45367">
        <ele>218.837</ele>
        <time>2016-05-22T08:59:46Z</time>
      </trkpt>
      <trkpt lat="43.52303" lon="1.45373">
        <ele>218.837</ele>
        <time>2016-05-22T08:59:51Z</time>
      </trkpt>
      <trkpt lat="43.52315" lon="1.4538">
        <ele>218.357</ele>
        <time>2016-05-22T08:59:57Z</time>
      </trkpt>
      <trkpt lat="43.52326" lon="1.45388">
        <ele>220.279</ele>
        <time>2016-05-22T09:00:03Z</time>
      </trkpt>
      <trkpt lat="43.52337" lon="1.45392">
        <ele>222.202</ele>
        <time>2016-05-22T09:00:09Z</time>
      </trkpt>
      <trkpt lat="43.52353" lon="1.45397">
        <ele>225.567</ele>
        <time>2016-05-22T09:00:17Z</time>
      </trkpt>
      <trkpt lat="43.52364" lon="1.45405">
        <ele>228.931</ele>
        <time>2016-05-22T09:00:24Z</time>
      </trkpt>
      <trkpt lat="43.52372" lon="1.4541">
        <ele>229.412</ele>
        <time>2016-05-22T09:00:30Z</time>
      </trkpt>
      <trkpt lat="43.52379" lon="1.45414">
        <ele>230.854</ele>
        <time>2016-05-22T09:00:36Z</time>
      </trkpt>
      <trkpt lat="43.52388" lon="1.4542">
        <ele>230.854</ele>
        <time>2016-05-22T09:00:44Z</time>
      </trkpt>
      <trkpt lat="43.52391" lon="1.45423">
        <ele>231.334</ele>
        <time>2016-05-22T09:00:47Z</time>
      </trkpt>
      <trkpt lat="43.52398" lon="1.45427">
        <ele>231.815</ele>
        <time>2016-05-22T09:00:54Z</time>
      </trkpt>
      <trkpt lat="43.52408" lon="1.45436">
        <ele>234.218</ele>
        <time>2016-05-22T09:01:01Z</time>
      </trkpt>
      <trkpt lat="43.5242" lon="1.45448">
        <ele>235.66</ele>
        <time>2016-05-22T09:01:09Z</time>
      </trkpt>
      <trkpt lat="43.5243" lon="1.45461">
        <ele>237.102</ele>
        <time>2016-05-22T09:01:15Z</time>
      </trkpt>
      <trkpt lat="43.5244" lon="1.45477">
        <ele>235.66</ele>
        <time>2016-05-22T09:01:22Z</time>
      </trkpt>
      <trkpt lat="43.52448" lon="1.45492">
        <ele>234.699</ele>
        <time>2016-05-22T09:01:28Z</time>
      </trkpt>
      <trkpt lat="43.52452" lon="1.45506">
        <ele>233.257</ele>
        <time>2016-05-22T09:01:33Z</time>
      </trkpt>
      <trkpt lat="43.52459" lon="1.45518">
        <ele>231.334</ele>
        <time>2016-05-22T09:01:38Z</time>
      </trkpt>
      <trkpt lat="43.52468" lon="1.45532">
        <ele>232.296</ele>
        <time>2016-05-22T09:01:43Z</time>
      </trkpt>
      <trkpt lat="43.52472" lon="1.45549">
        <ele>228.45</ele>
        <time>2016-05-22T09:01:48Z</time>
      </trkpt>
      <trkpt lat="43.52472" lon="1.45559">
        <ele>226.047</ele>
        <time>2016-05-22T09:01:51Z</time>
      </trkpt>
      <trkpt lat="43.52478" lon="1.45574">
        <ele>223.644</ele>
        <time>2016-05-22T09:01:56Z</time>
      </trkpt>
      <trkpt lat="43.52488" lon="1.45585">
        <ele>222.202</ele>
        <time>2016-05-22T09:02:01Z</time>
      </trkpt>
      <trkpt lat="43.525" lon="1.45596">
        <ele>220.279</ele>
        <time>2016-05-22T09:02:06Z</time>
      </trkpt>
      <trkpt lat="43.5251" lon="1.45609">
        <ele>219.318</ele>
        <time>2016-05-22T09:02:10Z</time>
      </trkpt>
      <trkpt lat="43.52522" lon="1.45619">
        <ele>215.953</ele>
        <time>2016-05-22T09:02:14Z</time>
      </trkpt>
      <trkpt lat="43.52528" lon="1.45625">
        <ele>214.031</ele>
        <time>2016-05-22T09:02:18Z</time>
      </trkpt>
      <trkpt lat="43.52533" lon="1.45633">
        <ele>209.705</ele>
        <time>2016-05-22T09:02:23Z</time>
      </trkpt>
      <trkpt lat="43.52538" lon="1.45643">
        <ele>207.782</ele>
        <time>2016-05-22T09:02:27Z</time>
      </trkpt>
      <trkpt lat="43.52553" lon="1.45657">
        <ele>207.301</ele>
        <time>2016-05-22T09:02:35Z</time>
      </trkpt>
      <trkpt lat="43.52566" lon="1.45667">
        <ele>207.782</ele>
        <time>2016-05-22T09:02:42Z</time>
      </trkpt>
      <trkpt lat="43.52579" lon="1.45678">
        <ele>211.627</ele>
        <time>2016-05-22T09:02:48Z</time>
      </trkpt>
      <trkpt lat="43.52589" lon="1.45688">
        <ele>214.031</ele>
        <time>2016-05-22T09:02:54Z</time>
      </trkpt>
      <trkpt lat="43.52594" lon="1.45697">
        <ele>216.915</ele>
        <time>2016-05-22T09:02:59Z</time>
      </trkpt>
      <trkpt lat="43.526" lon="1.45704">
        <ele>217.876</ele>
        <time>2016-05-22T09:03:04Z</time>
      </trkpt>
      <trkpt lat="43.52606" lon="1.4571">
        <ele>218.837</ele>
        <time>2016-05-22T09:03:11Z</time>
      </trkpt>
      <trkpt lat="43.52614" lon="1.45719">
        <ele>219.318</ele>
        <time>2016-05-22T09:03:19Z</time>
      </trkpt>
      <trkpt lat="43.52615" lon="1.45722">
        <ele>217.395</ele>
        <time>2016-05-22T09:03:22Z</time>
      </trkpt>
      <trkpt lat="43.52623" lon="1.45734">
        <ele>220.76</ele>
        <time>2016-05-22T09:03:31Z</time>
      </trkpt>
      <trkpt lat="43.52631" lon="1.45744">
        <ele>222.682</ele>
        <time>2016-05-22T09:03:39Z</time>
      </trkpt>
      <trkpt lat="43.52635" lon="1.45747">
        <ele>224.605</ele>
        <time>2016-05-22T09:03:44Z</time>
      </trkpt>
      <trkpt lat="43.52641" lon="1.45753">
        <ele>226.528</ele>
        <time>2016-05-22T09:03:50Z</time>
      </trkpt>
      <trkpt lat="43.52647" lon="1.45761">
        <ele>225.086</ele>
        <time>2016-05-22T09:03:58Z</time>
      </trkpt>
      <trkpt lat="43.52648" lon="1.45763">
        <ele>225.086</ele>
        <time>2016-05-22T09:04:00Z</time>
      </trkpt>
      <trkpt lat="43.52652" lon="1.45769">
        <ele>225.086</ele>
        <time>2016-05-22T09:04:07Z</time>
      </trkpt>
      <trkpt lat="43.52653" lon="1.45771">
        <ele>225.567</ele>
        <time>2016-05-22T09:04:09Z</time>
      </trkpt>
      <trkpt lat="43.52661" lon="1.45779">
        <ele>225.567</ele>
        <time>2016-05-22T09:04:16Z</time>
      </trkpt>
      <trkpt lat="43.52662" lon="1.45782">
        <ele>225.086</ele>
        <time>2016-05-22T09:04:18Z</time>
      </trkpt>
      <trkpt lat="43.52668" lon="1.4579">
        <ele>228.45</ele>
        <time>2016-05-22T09:04:25Z</time>
      </trkpt>
      <trkpt lat="43.52672" lon="1.458">
        <ele>233.257</ele>
        <time>2016-05-22T09:04:32Z</time>
      </trkpt>
      <trkpt lat="43.52679" lon="1.45813">
        <ele>239.025</ele>
        <time>2016-05-22T09:04:39Z</time>
      </trkpt>
      <trkpt lat="43.52684" lon="1.4582">
        <ele>241.428</ele>
        <time>2016-05-22T09:04:44Z</time>
      </trkpt>
      <trkpt lat="43.52692" lon="1.45832">
        <ele>247.196</ele>
        <time>2016-05-22T09:04:54Z</time>
      </trkpt>
      <trkpt lat="43.52699" lon="1.45844">
        <ele>250.08</ele>
        <time>2016-05-22T09:05:04Z</time>
      </trkpt>
      <trkpt lat="43.52708" lon="1.45854">
        <ele>252.964</ele>
        <time>2016-05-22T09:05:14Z</time>
      </trkpt>
      <trkpt lat="43.52716" lon="1.45863">
        <ele>255.367</ele>
        <time>2016-05-22T09:05:23Z</time>
      </trkpt>
      <trkpt lat="43.52724" lon="1.45871">
        <ele>256.329</ele>
        <time>2016-05-22T09:05:31Z</time>
      </trkpt>
      <trkpt lat="43.52734" lon="1.45883">
        <ele>258.732</ele>
        <time>2016-05-22T09:05:42Z</time>
      </trkpt>
      <trkpt lat="43.52738" lon="1.45886">
        <ele>260.174</ele>
        <time>2016-05-22T09:05:46Z</time>
      </trkpt>
      <trkpt lat="43.52747" lon="1.45893">
        <ele>259.693</ele>
        <time>2016-05-22T09:05:54Z</time>
      </trkpt>
      <trkpt lat="43.52749" lon="1.45894">
        <ele>259.693</ele>
        <time>2016-05-22T09:05:56Z</time>
      </trkpt>
      <trkpt lat="43.52757" lon="1.45887">
        <ele>257.771</ele>
        <time>2016-05-22T09:06:03Z</time>
      </trkpt>
      <trkpt lat="43.52767" lon="1.45878">
        <ele>256.329</ele>
        <time>2016-05-22T09:06:11Z</time>
      </trkpt>
      <trkpt lat="43.52776" lon="1.45871">
        <ele>255.367</ele>
        <time>2016-05-22T09:06:18Z</time>
      </trkpt>
      <trkpt lat="43.52784" lon="1.45862">
        <ele>254.887</ele>
        <time>2016-05-22T09:06:23Z</time>
      </trkpt>
      <trkpt lat="43.52794" lon="1.45851">
        <ele>253.925</ele>
        <time>2016-05-22T09:06:28Z</time>
      </trkpt>
      <trkpt lat="43.52807" lon="1.45835">
        <ele>252.483</ele>
        <time>2016-05-22T09:06:35Z</time>
      </trkpt>
      <trkpt lat="43.52817" lon="1.45823">
        <ele>252.483</ele>
        <time>2016-05-22T09:06:41Z</time>
      </trkpt>
      <trkpt lat="43.52828" lon="1.45807">
        <ele>253.925</ele>
        <time>2016-05-22T09:06:47Z</time>
      </trkpt>
      <trkpt lat="43.5284" lon="1.45794">
        <ele>252.964</ele>
        <time>2016-05-22T09:06:53Z</time>
      </trkpt>
      <trkpt lat="43.52853" lon="1.45778">
        <ele>251.041</ele>
        <time>2016-05-22T09:07:00Z</time>
      </trkpt>
      <trkpt lat="43.52864" lon="1.45763">
        <ele>249.599</ele>
        <time>2016-05-22T09:07:06Z</time>
      </trkpt>
      <trkpt lat="43.52877" lon="1.45746">
        <ele>247.196</ele>
        <time>2016-05-22T09:07:13Z</time>
      </trkpt>
      <trkpt lat="43.52888" lon="1.45731">
        <ele>245.273</ele>
        <time>2016-05-22T09:07:19Z</time>
      </trkpt>
      <trkpt lat="43.52899" lon="1.45715">
        <ele>244.312</ele>
        <time>2016-05-22T09:07:25Z</time>
      </trkpt>
      <trkpt lat="43.52911" lon="1.45698">
        <ele>243.832</ele>
        <time>2016-05-22T09:07:31Z</time>
      </trkpt>
      <trkpt lat="43.52915" lon="1.45693">
        <ele>243.351</ele>
        <time>2016-05-22T09:07:33Z</time>
      </trkpt>
      <trkpt lat="43.52915" lon="1.45693">
        <ele>243.351</ele>
        <time>2016-05-22T09:07:33Z</time>
      </trkpt>
      <trkpt lat="43.52922" lon="1.45684">
        <ele>241.909</ele>
        <time>2016-05-22T09:07:37Z</time>
      </trkpt>
      <trkpt lat="43.52935" lon="1.45667">
        <ele>239.025</ele>
        <time>2016-05-22T09:07:44Z</time>
      </trkpt>
      <trkpt lat="43.52945" lon="1.45651">
        <ele>238.064</ele>
        <time>2016-05-22T09:07:50Z</time>
      </trkpt>
      <trkpt lat="43.5295" lon="1.45645">
        <ele>237.102</ele>
        <time>2016-05-22T09:07:53Z</time>
      </trkpt>
      <trkpt lat="43.5296" lon="1.45646">
        <ele>238.064</ele>
        <time>2016-05-22T09:07:58Z</time>
      </trkpt>
      <trkpt lat="43.52976" lon="1.45642">
        <ele>236.622</ele>
        <time>2016-05-22T09:08:04Z</time>
      </trkpt>
      <trkpt lat="43.52987" lon="1.45634">
        <ele>235.66</ele>
        <time>2016-05-22T09:08:09Z</time>
      </trkpt>
      <trkpt lat="43.53004" lon="1.45625">
        <ele>233.257</ele>
        <time>2016-05-22T09:08:16Z</time>
      </trkpt>
      <trkpt lat="43.53016" lon="1.45617">
        <ele>231.815</ele>
        <time>2016-05-22T09:08:21Z</time>
      </trkpt>
      <trkpt lat="43.53035" lon="1.45606">
        <ele>228.931</ele>
        <time>2016-05-22T09:08:28Z</time>
      </trkpt>
      <trkpt lat="43.53051" lon="1.456">
        <ele>226.528</ele>
        <time>2016-05-22T09:08:34Z</time>
      </trkpt>
      <trkpt lat="43.53058" lon="1.45599">
        <ele>224.605</ele>
        <time>2016-05-22T09:08:37Z</time>
      </trkpt>
      <trkpt lat="43.53071" lon="1.45592">
        <ele>222.682</ele>
        <time>2016-05-22T09:08:42Z</time>
      </trkpt>
      <trkpt lat="43.53085" lon="1.4559">
        <ele>219.799</ele>
        <time>2016-05-22T09:08:47Z</time>
      </trkpt>
      <trkpt lat="43.53098" lon="1.45588">
        <ele>216.434</ele>
        <time>2016-05-22T09:08:52Z</time>
      </trkpt>
      <trkpt lat="43.53113" lon="1.45587">
        <ele>213.069</ele>
        <time>2016-05-22T09:08:57Z</time>
      </trkpt>
      <trkpt lat="43.53128" lon="1.45586">
        <ele>211.627</ele>
        <time>2016-05-22T09:09:02Z</time>
      </trkpt>
      <trkpt lat="43.53144" lon="1.45577">
        <ele>211.147</ele>
        <time>2016-05-22T09:09:08Z</time>
      </trkpt>
      <trkpt lat="43.53162" lon="1.4557">
        <ele>210.185</ele>
        <time>2016-05-22T09:09:14Z</time>
      </trkpt>
      <trkpt lat="43.53181" lon="1.4556">
        <ele>206.821</ele>
        <time>2016-05-22T09:09:21Z</time>
      </trkpt>
      <trkpt lat="43.53197" lon="1.45554">
        <ele>204.417</ele>
        <time>2016-05-22T09:09:26Z</time>
      </trkpt>
      <trkpt lat="43.53211" lon="1.45547">
        <ele>202.495</ele>
        <time>2016-05-22T09:09:31Z</time>
      </trkpt>
      <trkpt lat="43.53222" lon="1.45543">
        <ele>201.534</ele>
        <time>2016-05-22T09:09:36Z</time>
      </trkpt>
      <trkpt lat="43.53236" lon="1.45543">
        <ele>199.13</ele>
        <time>2016-05-22T09:09:41Z</time>
      </trkpt>
      <trkpt lat="43.53251" lon="1.45545">
        <ele>199.13</ele>
        <time>2016-05-22T09:09:46Z</time>
      </trkpt>
      <trkpt lat="43.53272" lon="1.45552">
        <ele>196.727</ele>
        <time>2016-05-22T09:09:53Z</time>
      </trkpt>
      <trkpt lat="43.53286" lon="1.45564">
        <ele>192.882</ele>
        <time>2016-05-22T09:09:59Z</time>
      </trkpt>
      <trkpt lat="43.53295" lon="1.45577">
        <ele>189.036</ele>
        <time>2016-05-22T09:10:04Z</time>
      </trkpt>
      <trkpt lat="43.53309" lon="1.45588">
        <ele>188.075</ele>
        <time>2016-05-22T09:10:10Z</time>
      </trkpt>
      <trkpt lat="43.53322" lon="1.45602">
        <ele>184.711</ele>
        <time>2016-05-22T09:10:16Z</time>
      </trkpt>
      <trkpt lat="43.53334" lon="1.45613">
        <ele>181.826</ele>
        <time>2016-05-22T09:10:22Z</time>
      </trkpt>
      <trkpt lat="43.53345" lon="1.45625">
        <ele>177.981</ele>
        <time>2016-05-22T09:10:27Z</time>
      </trkpt>
      <trkpt lat="43.53357" lon="1.45635">
        <ele>178.943</ele>
        <time>2016-05-22T09:10:32Z</time>
      </trkpt>
      <trkpt lat="43.53367" lon="1.45645">
        <ele>177.02</ele>
        <time>2016-05-22T09:10:37Z</time>
      </trkpt>
      <trkpt lat="43.53378" lon="1.45657">
        <ele>175.097</ele>
        <time>2016-05-22T09:10:42Z</time>
      </trkpt>
      <trkpt lat="43.53392" lon="1.45665">
        <ele>173.175</ele>
        <time>2016-05-22T09:10:48Z</time>
      </trkpt>
      <trkpt lat="43.53407" lon="1.45671">
        <ele>171.252</ele>
        <time>2016-05-22T09:10:53Z</time>
      </trkpt>
      <trkpt lat="43.53421" lon="1.45679">
        <ele>171.252</ele>
        <time>2016-05-22T09:10:58Z</time>
      </trkpt>
      <trkpt lat="43.53433" lon="1.45688">
        <ele>171.252</ele>
        <time>2016-05-22T09:11:04Z</time>
      </trkpt>
      <trkpt lat="43.53443" lon="1.45692">
        <ele>173.655</ele>
        <time>2016-05-22T09:11:11Z</time>
      </trkpt>
      <trkpt lat="43.53448" lon="1.45697">
        <ele>173.175</ele>
        <time>2016-05-22T09:11:16Z</time>
      </trkpt>
      <trkpt lat="43.53454" lon="1.45704">
        <ele>172.213</ele>
        <time>2016-05-22T09:11:23Z</time>
      </trkpt>
      <trkpt lat="43.5346" lon="1.4571">
        <ele>174.136</ele>
        <time>2016-05-22T09:11:30Z</time>
      </trkpt>
      <trkpt lat="43.53467" lon="1.45717">
        <ele>172.694</ele>
        <time>2016-05-22T09:11:38Z</time>
      </trkpt>
      <trkpt lat="43.53471" lon="1.45723">
        <ele>173.175</ele>
        <time>2016-05-22T09:11:43Z</time>
      </trkpt>
      <trkpt lat="43.53472" lon="1.45728">
        <ele>173.655</ele>
        <time>2016-05-22T09:11:47Z</time>
      </trkpt>
      <trkpt lat="43.53471" lon="1.45732">
        <ele>174.136</ele>
        <time>2016-05-22T09:11:50Z</time>
      </trkpt>
      <trkpt lat="43.53469" lon="1.4574">
        <ele>176.059</ele>
        <time>2016-05-22T09:11:54Z</time>
      </trkpt>
      <trkpt lat="43.53464" lon="1.45753">
        <ele>177.981</ele>
        <time>2016-05-22T09:11:59Z</time>
      </trkpt>
      <trkpt lat="43.53457" lon="1.45768">
        <ele>179.904</ele>
        <time>2016-05-22T09:12:05Z</time>
      </trkpt>
      <trkpt lat="43.53452" lon="1.45785">
        <ele>180.865</ele>
        <time>2016-05-22T09:12:12Z</time>
      </trkpt>
      <trkpt lat="43.53451" lon="1.45802">
        <ele>183.268</ele>
        <time>2016-05-22T09:12:18Z</time>
      </trkpt>
      <trkpt lat="43.53452" lon="1.45821">
        <ele>184.711</ele>
        <time>2016-05-22T09:12:25Z</time>
      </trkpt>
      <trkpt lat="43.53444" lon="1.45839">
        <ele>186.152</ele>
        <time>2016-05-22T09:12:32Z</time>
      </trkpt>
      <trkpt lat="43.53433" lon="1.45859">
        <ele>187.594</ele>
        <time>2016-05-22T09:12:40Z</time>
      </trkpt>
      <trkpt lat="43.53422" lon="1.45865">
        <ele>187.114</ele>
        <time>2016-05-22T09:12:44Z</time>
      </trkpt>
      <trkpt lat="43.53411" lon="1.45879">
        <ele>187.114</ele>
        <time>2016-05-22T09:12:49Z</time>
      </trkpt>
      <trkpt lat="43.53407" lon="1.45898">
        <ele>186.633</ele>
        <time>2016-05-22T09:12:55Z</time>
      </trkpt>
      <trkpt lat="43.53404" lon="1.45912">
        <ele>187.114</ele>
        <time>2016-05-22T09:13:00Z</time>
      </trkpt>
      <trkpt lat="43.53397" lon="1.45925">
        <ele>186.633</ele>
        <time>2016-05-22T09:13:05Z</time>
      </trkpt>
      <trkpt lat="43.53387" lon="1.45941">
        <ele>186.633</ele>
        <time>2016-05-22T09:13:11Z</time>
      </trkpt>
      <trkpt lat="43.53381" lon="1.45954">
        <ele>186.633</ele>
        <time>2016-05-22T09:13:16Z</time>
      </trkpt>
      <trkpt lat="43.53381" lon="1.45961">
        <ele>186.633</ele>
        <time>2016-05-22T09:13:20Z</time>
      </trkpt>
      <trkpt lat="43.53385" lon="1.45972">
        <ele>187.594</ele>
        <time>2016-05-22T09:13:27Z</time>
      </trkpt>
      <trkpt lat="43.53386" lon="1.45975">
        <ele>187.114</ele>
        <time>2016-05-22T09:13:30Z</time>
      </trkpt>
      <trkpt lat="43.53387" lon="1.45975">
        <ele>187.114</ele>
        <time>2016-05-22T09:13:33Z</time>
      </trkpt>
      <trkpt lat="43.53398" lon="1.45972">
        <ele>190.478</ele>
        <time>2016-05-22T09:13:40Z</time>
      </trkpt>
      <trkpt lat="43.53408" lon="1.45967">
        <ele>191.44</ele>
        <time>2016-05-22T09:13:46Z</time>
      </trkpt>
      <trkpt lat="43.53417" lon="1.45963">
        <ele>191.92</ele>
        <time>2016-05-22T09:13:51Z</time>
      </trkpt>
      <trkpt lat="43.53426" lon="1.45958">
        <ele>192.401</ele>
        <time>2016-05-22T09:13:56Z</time>
      </trkpt>
      <trkpt lat="43.53436" lon="1.45953">
        <ele>191.44</ele>
        <time>2016-05-22T09:14:03Z</time>
      </trkpt>
      <trkpt lat="43.53442" lon="1.45945">
        <ele>193.362</ele>
        <time>2016-05-22T09:14:08Z</time>
      </trkpt>
      <trkpt lat="43.53443" lon="1.45944">
        <ele>193.843</ele>
        <time>2016-05-22T09:14:09Z</time>
      </trkpt>
      <trkpt lat="43.53443" lon="1.45944">
        <ele>193.843</ele>
        <time>2016-05-22T09:14:09Z</time>
      </trkpt>
      <trkpt lat="43.53449" lon="1.45933">
        <ele>197.208</ele>
        <time>2016-05-22T09:14:16Z</time>
      </trkpt>
      <trkpt lat="43.53457" lon="1.45925">
        <ele>199.611</ele>
        <time>2016-05-22T09:14:24Z</time>
      </trkpt>
      <trkpt lat="43.53466" lon="1.45917">
        <ele>200.572</ele>
        <time>2016-05-22T09:14:31Z</time>
      </trkpt>
      <trkpt lat="43.53473" lon="1.45912">
        <ele>202.975</ele>
        <time>2016-05-22T09:14:38Z</time>
      </trkpt>
      <trkpt lat="43.5348" lon="1.4591">
        <ele>204.898</ele>
        <time>2016-05-22T09:14:43Z</time>
      </trkpt>
      <trkpt lat="43.53481" lon="1.45913">
        <ele>205.859</ele>
        <time>2016-05-22T09:14:48Z</time>
      </trkpt>
      <trkpt lat="43.53482" lon="1.45917">
        <ele>207.301</ele>
        <time>2016-05-22T09:14:52Z</time>
      </trkpt>
      <trkpt lat="43.53489" lon="1.45915">
        <ele>207.301</ele>
        <time>2016-05-22T09:14:57Z</time>
      </trkpt>
      <trkpt lat="43.5349" lon="1.45914">
        <ele>207.782</ele>
        <time>2016-05-22T09:14:58Z</time>
      </trkpt>
      <trkpt lat="43.53495" lon="1.45911">
        <ele>206.34</ele>
        <time>2016-05-22T09:15:03Z</time>
      </trkpt>
      <trkpt lat="43.53502" lon="1.4591">
        <ele>205.859</ele>
        <time>2016-05-22T09:15:09Z</time>
      </trkpt>
      <trkpt lat="43.53511" lon="1.45908">
        <ele>204.898</ele>
        <time>2016-05-22T09:15:16Z</time>
      </trkpt>
      <trkpt lat="43.5352" lon="1.45907">
        <ele>203.937</ele>
        <time>2016-05-22T09:15:24Z</time>
      </trkpt>
      <trkpt lat="43.53526" lon="1.45906">
        <ele>205.859</ele>
        <time>2016-05-22T09:15:29Z</time>
      </trkpt>
      <trkpt lat="43.53533" lon="1.459">
        <ele>206.821</ele>
        <time>2016-05-22T09:15:36Z</time>
      </trkpt>
      <trkpt lat="43.53544" lon="1.45897">
        <ele>208.743</ele>
        <time>2016-05-22T09:15:44Z</time>
      </trkpt>
      <trkpt lat="43.53548" lon="1.45897">
        <ele>209.224</ele>
        <time>2016-05-22T09:15:47Z</time>
      </trkpt>
      <trkpt lat="43.53555" lon="1.45892">
        <ele>210.666</ele>
        <time>2016-05-22T09:15:52Z</time>
      </trkpt>
      <trkpt lat="43.53564" lon="1.45885">
        <ele>212.589</ele>
        <time>2016-05-22T09:15:59Z</time>
      </trkpt>
      <trkpt lat="43.53569" lon="1.4588">
        <ele>215.473</ele>
        <time>2016-05-22T09:16:03Z</time>
      </trkpt>
      <trkpt lat="43.53581" lon="1.45875">
        <ele>217.876</ele>
        <time>2016-05-22T09:16:11Z</time>
      </trkpt>
      <trkpt lat="43.53587" lon="1.45871">
        <ele>217.395</ele>
        <time>2016-05-22T09:16:16Z</time>
      </trkpt>
      <trkpt lat="43.53594" lon="1.45868">
        <ele>217.876</ele>
        <time>2016-05-22T09:16:22Z</time>
      </trkpt>
      <trkpt lat="43.53599" lon="1.45865">
        <ele>217.395</ele>
        <time>2016-05-22T09:16:26Z</time>
      </trkpt>
      <trkpt lat="43.53611" lon="1.45858">
        <ele>217.395</ele>
        <time>2016-05-22T09:16:34Z</time>
      </trkpt>
      <trkpt lat="43.53622" lon="1.4585">
        <ele>222.202</ele>
        <time>2016-05-22T09:16:42Z</time>
      </trkpt>
      <trkpt lat="43.53634" lon="1.4584">
        <ele>223.163</ele>
        <time>2016-05-22T09:16:51Z</time>
      </trkpt>
      <trkpt lat="43.53644" lon="1.45831">
        <ele>223.644</ele>
        <time>2016-05-22T09:16:59Z</time>
      </trkpt>
      <trkpt lat="43.53653" lon="1.45826">
        <ele>221.721</ele>
        <time>2016-05-22T09:17:06Z</time>
      </trkpt>
      <trkpt lat="43.53662" lon="1.45821">
        <ele>223.644</ele>
        <time>2016-05-22T09:17:13Z</time>
      </trkpt>
      <trkpt lat="43.53665" lon="1.45818">
        <ele>224.125</ele>
        <time>2016-05-22T09:17:16Z</time>
      </trkpt>
      <trkpt lat="43.53675" lon="1.45814">
        <ele>227.009</ele>
        <time>2016-05-22T09:17:24Z</time>
      </trkpt>
      <trkpt lat="43.53678" lon="1.45811">
        <ele>228.45</ele>
        <time>2016-05-22T09:17:27Z</time>
      </trkpt>
      <trkpt lat="43.53689" lon="1.45805">
        <ele>233.257</ele>
        <time>2016-05-22T09:17:35Z</time>
      </trkpt>
      <trkpt lat="43.53694" lon="1.45802">
        <ele>234.218</ele>
        <time>2016-05-22T09:17:40Z</time>
      </trkpt>
      <trkpt lat="43.53701" lon="1.45795">
        <ele>231.334</ele>
        <time>2016-05-22T09:17:46Z</time>
      </trkpt>
      <trkpt lat="43.53707" lon="1.45791">
        <ele>232.776</ele>
        <time>2016-05-22T09:17:51Z</time>
      </trkpt>
      <trkpt lat="43.53713" lon="1.45789">
        <ele>233.257</ele>
        <time>2016-05-22T09:17:56Z</time>
      </trkpt>
      <trkpt lat="43.53715" lon="1.45787">
        <ele>233.257</ele>
        <time>2016-05-22T09:17:58Z</time>
      </trkpt>
      <trkpt lat="43.53725" lon="1.45781">
        <ele>232.296</ele>
        <time>2016-05-22T09:18:05Z</time>
      </trkpt>
      <trkpt lat="43.53732" lon="1.45775">
        <ele>234.699</ele>
        <time>2016-05-22T09:18:11Z</time>
      </trkpt>
      <trkpt lat="43.5374" lon="1.4577">
        <ele>236.622</ele>
        <time>2016-05-22T09:18:17Z</time>
      </trkpt>
      <trkpt lat="43.53747" lon="1.45763">
        <ele>238.544</ele>
        <time>2016-05-22T09:18:23Z</time>
      </trkpt>
      <trkpt lat="43.53755" lon="1.45756">
        <ele>239.025</ele>
        <time>2016-05-22T09:18:30Z</time>
      </trkpt>
      <trkpt lat="43.53763" lon="1.45747">
        <ele>241.428</ele>
        <time>2016-05-22T09:18:37Z</time>
      </trkpt>
      <trkpt lat="43.53764" lon="1.45745">
        <ele>240.948</ele>
        <time>2016-05-22T09:18:38Z</time>
      </trkpt>
      <trkpt lat="43.53772" lon="1.45737">
        <ele>239.986</ele>
        <time>2016-05-22T09:18:45Z</time>
      </trkpt>
      <trkpt lat="43.53775" lon="1.45733">
        <ele>239.505</ele>
        <time>2016-05-22T09:18:48Z</time>
      </trkpt>
      <trkpt lat="43.53784" lon="1.45725">
        <ele>239.505</ele>
        <time>2016-05-22T09:18:55Z</time>
      </trkpt>
      <trkpt lat="43.53794" lon="1.4572">
        <ele>241.428</ele>
        <time>2016-05-22T09:19:02Z</time>
      </trkpt>
      <trkpt lat="43.53796" lon="1.4572">
        <ele>240.948</ele>
        <time>2016-05-22T09:19:04Z</time>
      </trkpt>
      <trkpt lat="43.53801" lon="1.45714">
        <ele>240.948</ele>
        <time>2016-05-22T09:19:08Z</time>
      </trkpt>
      <trkpt lat="43.53816" lon="1.45701">
        <ele>239.025</ele>
        <time>2016-05-22T09:19:15Z</time>
      </trkpt>
      <trkpt lat="43.53825" lon="1.45694">
        <ele>238.544</ele>
        <time>2016-05-22T09:19:20Z</time>
      </trkpt>
      <trkpt lat="43.53835" lon="1.45685">
        <ele>238.064</ele>
        <time>2016-05-22T09:19:25Z</time>
      </trkpt>
      <trkpt lat="43.53847" lon="1.45673">
        <ele>238.064</ele>
        <time>2016-05-22T09:19:31Z</time>
      </trkpt>
      <trkpt lat="43.5386" lon="1.45661">
        <ele>236.141</ele>
        <time>2016-05-22T09:19:37Z</time>
      </trkpt>
      <trkpt lat="43.53868" lon="1.45652">
        <ele>235.18</ele>
        <time>2016-05-22T09:19:42Z</time>
      </trkpt>
      <trkpt lat="43.53877" lon="1.45642">
        <ele>234.218</ele>
        <time>2016-05-22T09:19:47Z</time>
      </trkpt>
      <trkpt lat="43.53881" lon="1.45638">
        <ele>234.699</ele>
        <time>2016-05-22T09:19:49Z</time>
      </trkpt>
      <trkpt lat="43.53887" lon="1.4563">
        <ele>233.738</ele>
        <time>2016-05-22T09:19:53Z</time>
      </trkpt>
      <trkpt lat="43.53894" lon="1.45615">
        <ele>232.776</ele>
        <time>2016-05-22T09:19:59Z</time>
      </trkpt>
      <trkpt lat="43.53905" lon="1.45604">
        <ele>232.296</ele>
        <time>2016-05-22T09:20:05Z</time>
      </trkpt>
      <trkpt lat="43.53917" lon="1.45589">
        <ele>235.18</ele>
        <time>2016-05-22T09:20:12Z</time>
      </trkpt>
      <trkpt lat="43.5393" lon="1.45574">
        <ele>236.622</ele>
        <time>2016-05-22T09:20:20Z</time>
      </trkpt>
      <trkpt lat="43.5394" lon="1.45563">
        <ele>239.025</ele>
        <time>2016-05-22T09:20:26Z</time>
      </trkpt>
      <trkpt lat="43.53949" lon="1.45551">
        <ele>241.428</ele>
        <time>2016-05-22T09:20:31Z</time>
      </trkpt>
      <trkpt lat="43.53961" lon="1.45538">
        <ele>241.909</ele>
        <time>2016-05-22T09:20:37Z</time>
      </trkpt>
      <trkpt lat="43.53972" lon="1.45525">
        <ele>241.909</ele>
        <time>2016-05-22T09:20:43Z</time>
      </trkpt>
      <trkpt lat="43.53984" lon="1.45511">
        <ele>243.351</ele>
        <time>2016-05-22T09:20:49Z</time>
      </trkpt>
      <trkpt lat="43.53999" lon="1.45498">
        <ele>243.832</ele>
        <time>2016-05-22T09:20:56Z</time>
      </trkpt>
      <trkpt lat="43.54014" lon="1.45496">
        <ele>243.832</ele>
        <time>2016-05-22T09:21:03Z</time>
      </trkpt>
      <trkpt lat="43.54016" lon="1.45495">
        <ele>244.312</ele>
        <time>2016-05-22T09:21:04Z</time>
      </trkpt>
      <trkpt lat="43.54029" lon="1.45489">
        <ele>247.196</ele>
        <time>2016-05-22T09:21:10Z</time>
      </trkpt>
      <trkpt lat="43.54043" lon="1.45484">
        <ele>248.158</ele>
        <time>2016-05-22T09:21:16Z</time>
      </trkpt>
      <trkpt lat="43.54056" lon="1.45479">
        <ele>248.638</ele>
        <time>2016-05-22T09:21:22Z</time>
      </trkpt>
      <trkpt lat="43.54069" lon="1.45473">
        <ele>250.08</ele>
        <time>2016-05-22T09:21:28Z</time>
      </trkpt>
      <trkpt lat="43.54081" lon="1.45473">
        <ele>250.08</ele>
        <time>2016-05-22T09:21:33Z</time>
      </trkpt>
      <trkpt lat="43.54097" lon="1.45482">
        <ele>248.158</ele>
        <time>2016-05-22T09:21:41Z</time>
      </trkpt>
      <trkpt lat="43.54111" lon="1.45491">
        <ele>246.235</ele>
        <time>2016-05-22T09:21:47Z</time>
      </trkpt>
      <trkpt lat="43.54125" lon="1.45502">
        <ele>243.832</ele>
        <time>2016-05-22T09:21:53Z</time>
      </trkpt>
      <trkpt lat="43.54139" lon="1.45512">
        <ele>241.428</ele>
        <time>2016-05-22T09:21:59Z</time>
      </trkpt>
      <trkpt lat="43.54151" lon="1.45521">
        <ele>237.583</ele>
        <time>2016-05-22T09:22:05Z</time>
      </trkpt>
      <trkpt lat="43.5416" lon="1.45532">
        <ele>234.699</ele>
        <time>2016-05-22T09:22:10Z</time>
      </trkpt>
      <trkpt lat="43.54171" lon="1.45544">
        <ele>233.738</ele>
        <time>2016-05-22T09:22:15Z</time>
      </trkpt>
      <trkpt lat="43.54183" lon="1.45554">
        <ele>231.815</ele>
        <time>2016-05-22T09:22:20Z</time>
      </trkpt>
      <trkpt lat="43.54194" lon="1.45564">
        <ele>232.296</ele>
        <time>2016-05-22T09:22:25Z</time>
      </trkpt>
      <trkpt lat="43.54207" lon="1.45573">
        <ele>234.218</ele>
        <time>2016-05-22T09:22:29Z</time>
      </trkpt>
      <trkpt lat="43.5422" lon="1.45584">
        <ele>233.738</ele>
        <time>2016-05-22T09:22:34Z</time>
      </trkpt>
      <trkpt lat="43.5422" lon="1.45584">
        <ele>233.738</ele>
        <time>2016-05-22T09:22:34Z</time>
      </trkpt>
      <trkpt lat="43.5423" lon="1.45594">
        <ele>232.296</ele>
        <time>2016-05-22T09:22:38Z</time>
      </trkpt>
      <trkpt lat="43.54241" lon="1.45605">
        <ele>228.931</ele>
        <time>2016-05-22T09:22:43Z</time>
      </trkpt>
      <trkpt lat="43.54255" lon="1.45619">
        <ele>226.047</ele>
        <time>2016-05-22T09:22:49Z</time>
      </trkpt>
      <trkpt lat="43.54267" lon="1.4563">
        <ele>223.163</ele>
        <time>2016-05-22T09:22:54Z</time>
      </trkpt>
      <trkpt lat="43.54284" lon="1.45646">
        <ele>222.682</ele>
        <time>2016-05-22T09:23:00Z</time>
      </trkpt>
      <trkpt lat="43.54302" lon="1.45661">
        <ele>224.125</ele>
        <time>2016-05-22T09:23:06Z</time>
      </trkpt>
      <trkpt lat="43.54315" lon="1.45675">
        <ele>224.605</ele>
        <time>2016-05-22T09:23:12Z</time>
      </trkpt>
      <trkpt lat="43.54323" lon="1.45682">
        <ele>224.605</ele>
        <time>2016-05-22T09:23:16Z</time>
      </trkpt>
      <trkpt lat="43.54334" lon="1.4569">
        <ele>223.644</ele>
        <time>2016-05-22T09:23:21Z</time>
      </trkpt>
      <trkpt lat="43.54347" lon="1.45686">
        <ele>222.682</ele>
        <time>2016-05-22T09:23:26Z</time>
      </trkpt>
      <trkpt lat="43.5435" lon="1.45684">
        <ele>222.682</ele>
        <time>2016-05-22T09:23:27Z</time>
      </trkpt>
      <trkpt lat="43.54363" lon="1.45666">
        <ele>223.163</ele>
        <time>2016-05-22T09:23:35Z</time>
      </trkpt>
      <trkpt lat="43.54372" lon="1.45651">
        <ele>223.163</ele>
        <time>2016-05-22T09:23:41Z</time>
      </trkpt>
      <trkpt lat="43.54375" lon="1.45645">
        <ele>223.163</ele>
        <time>2016-05-22T09:23:43Z</time>
      </trkpt>
      <trkpt lat="43.54383" lon="1.45632">
        <ele>222.202</ele>
        <time>2016-05-22T09:23:49Z</time>
      </trkpt>
      <trkpt lat="43.54386" lon="1.45627">
        <ele>221.721</ele>
        <time>2016-05-22T09:23:51Z</time>
      </trkpt>
      <trkpt lat="43.54397" lon="1.45611">
        <ele>221.721</ele>
        <time>2016-05-22T09:23:58Z</time>
      </trkpt>
      <trkpt lat="43.54406" lon="1.45597">
        <ele>222.202</ele>
        <time>2016-05-22T09:24:04Z</time>
      </trkpt>
      <trkpt lat="43.54414" lon="1.4558">
        <ele>222.682</ele>
        <time>2016-05-22T09:24:10Z</time>
      </trkpt>
      <trkpt lat="43.54425" lon="1.4556">
        <ele>223.644</ele>
        <time>2016-05-22T09:24:17Z</time>
      </trkpt>
      <trkpt lat="43.54433" lon="1.45544">
        <ele>225.086</ele>
        <time>2016-05-22T09:24:23Z</time>
      </trkpt>
      <trkpt lat="43.5444" lon="1.45531">
        <ele>226.528</ele>
        <time>2016-05-22T09:24:28Z</time>
      </trkpt>
      <trkpt lat="43.54451" lon="1.45517">
        <ele>226.528</ele>
        <time>2016-05-22T09:24:34Z</time>
      </trkpt>
      <trkpt lat="43.54459" lon="1.45505">
        <ele>227.489</ele>
        <time>2016-05-22T09:24:39Z</time>
      </trkpt>
      <trkpt lat="43.54469" lon="1.45491">
        <ele>227.489</ele>
        <time>2016-05-22T09:24:45Z</time>
      </trkpt>
      <trkpt lat="43.5448" lon="1.45477">
        <ele>225.567</ele>
        <time>2016-05-22T09:24:51Z</time>
      </trkpt>
      <trkpt lat="43.54492" lon="1.45461">
        <ele>224.605</ele>
        <time>2016-05-22T09:24:58Z</time>
      </trkpt>
      <trkpt lat="43.54502" lon="1.45445">
        <ele>222.682</ele>
        <time>2016-05-22T09:25:04Z</time>
      </trkpt>
      <trkpt lat="43.54512" lon="1.45428">
        <ele>220.76</ele>
        <time>2016-05-22T09:25:10Z</time>
      </trkpt>
      <trkpt lat="43.54519" lon="1.45406">
        <ele>218.837</ele>
        <time>2016-05-22T09:25:17Z</time>
      </trkpt>
      <trkpt lat="43.54523" lon="1.45386">
        <ele>217.876</ele>
        <time>2016-05-22T09:25:23Z</time>
      </trkpt>
      <trkpt lat="43.54532" lon="1.45368">
        <ele>218.357</ele>
        <time>2016-05-22T09:25:29Z</time>
      </trkpt>
      <trkpt lat="43.54542" lon="1.4535">
        <ele>218.357</ele>
        <time>2016-05-22T09:25:35Z</time>
      </trkpt>
      <trkpt lat="43.54554" lon="1.4533">
        <ele>218.837</ele>
        <time>2016-05-22T09:25:42Z</time>
      </trkpt>
      <trkpt lat="43.54562" lon="1.45315">
        <ele>218.837</ele>
        <time>2016-05-22T09:25:47Z</time>
      </trkpt>
      <trkpt lat="43.54574" lon="1.45309">
        <ele>223.163</ele>
        <time>2016-05-22T09:25:53Z</time>
      </trkpt>
      <trkpt lat="43.54587" lon="1.45316">
        <ele>223.644</ele>
        <time>2016-05-22T09:25:58Z</time>
      </trkpt>
      <trkpt lat="43.54601" lon="1.45313">
        <ele>223.644</ele>
        <time>2016-05-22T09:26:03Z</time>
      </trkpt>
      <trkpt lat="43.54615" lon="1.45317">
        <ele>223.644</ele>
        <time>2016-05-22T09:26:08Z</time>
      </trkpt>
      <trkpt lat="43.54622" lon="1.45329">
        <ele>223.163</ele>
        <time>2016-05-22T09:26:13Z</time>
      </trkpt>
      <trkpt lat="43.54624" lon="1.45351">
        <ele>223.644</ele>
        <time>2016-05-22T09:26:19Z</time>
      </trkpt>
      <trkpt lat="43.54624" lon="1.45351">
        <ele>228.8</ele>
        <time>2016-05-22T09:26:23Z</time>
      </trkpt>
    </trkseg>
  </trk>
</gpx>